<?xml version="1.0" encoding="UTF-8" standalone="no" ?>
<gpx xmlns="http://www.topografix.com/GPX/1/1" xmlns:xsi="http://www.w3.org/2001/XMLSchema-instance" xsi:schemaLocation="http://www.topografix.com/GPX/1/1 http://www.topografix.com/GPX/1/1/gpx.xsd" version="1.1" creator="VisuGPX - https://www.visugpx.com">
  <metadata>
    <name>tour du JALOUVRE</name>
    <desc><![CDATA[[img]tour du JALOUSER au départ du col de la colombière et dans le sens anti horaire. [/img]]]></desc>
  </metadata>
  <trk>
    <name><![CDATA[2 sept. 2018 à 09:59:45]]></name>
    <cmt><![CDATA[2 sept. 2018 à 09:59:45]]></cmt>
    <trkseg>
      <trkpt lat="45.99241" lon="6.47642">
        <ele>1580</ele>
        <time>2018-09-02T07:59:45Z</time>
      </trkpt>
      <trkpt lat="45.99231" lon="6.47659">
        <ele>1619</ele>
        <time>2018-09-02T07:59:46Z</time>
      </trkpt>
      <trkpt lat="45.99236" lon="6.4765">
        <ele>1608</ele>
        <time>2018-09-02T08:00:18Z</time>
      </trkpt>
      <trkpt lat="45.9924" lon="6.47645">
        <ele>1607</ele>
        <time>2018-09-02T08:00:42Z</time>
      </trkpt>
      <trkpt lat="45.99238" lon="6.47626">
        <ele>1606</ele>
        <time>2018-09-02T08:01:55Z</time>
      </trkpt>
      <trkpt lat="45.99233" lon="6.47614">
        <ele>1607</ele>
        <time>2018-09-02T08:02:08Z</time>
      </trkpt>
      <trkpt lat="45.99229" lon="6.47593">
        <ele>1609</ele>
        <time>2018-09-02T08:02:30Z</time>
      </trkpt>
      <trkpt lat="45.99225" lon="6.47581">
        <ele>1609</ele>
        <time>2018-09-02T08:02:39Z</time>
      </trkpt>
      <trkpt lat="45.99222" lon="6.47575">
        <ele>1610</ele>
        <time>2018-09-02T08:02:54Z</time>
      </trkpt>
      <trkpt lat="45.99224" lon="6.47569">
        <ele>1609</ele>
        <time>2018-09-02T08:03:06Z</time>
      </trkpt>
      <trkpt lat="45.99227" lon="6.47561">
        <ele>1609</ele>
        <time>2018-09-02T08:03:11Z</time>
      </trkpt>
      <trkpt lat="45.99226" lon="6.47555">
        <ele>1606</ele>
        <time>2018-09-02T08:03:14Z</time>
      </trkpt>
      <trkpt lat="45.99224" lon="6.47548">
        <ele>1607</ele>
        <time>2018-09-02T08:03:19Z</time>
      </trkpt>
      <trkpt lat="45.99225" lon="6.4754">
        <ele>1611</ele>
        <time>2018-09-02T08:03:24Z</time>
      </trkpt>
      <trkpt lat="45.9923" lon="6.47534">
        <ele>1611</ele>
        <time>2018-09-02T08:03:31Z</time>
      </trkpt>
      <trkpt lat="45.9923" lon="6.47526">
        <ele>1611</ele>
        <time>2018-09-02T08:03:35Z</time>
      </trkpt>
      <trkpt lat="45.99227" lon="6.47511">
        <ele>1612</ele>
        <time>2018-09-02T08:03:48Z</time>
      </trkpt>
      <trkpt lat="45.99227" lon="6.47496">
        <ele>1614</ele>
        <time>2018-09-02T08:04:05Z</time>
      </trkpt>
      <trkpt lat="45.99222" lon="6.47435">
        <ele>1620</ele>
        <time>2018-09-02T08:04:52Z</time>
      </trkpt>
      <trkpt lat="45.99223" lon="6.47423">
        <ele>1622</ele>
        <time>2018-09-02T08:05:06Z</time>
      </trkpt>
      <trkpt lat="45.99217" lon="6.4741">
        <ele>1626</ele>
        <time>2018-09-02T08:05:30Z</time>
      </trkpt>
      <trkpt lat="45.99219" lon="6.47396">
        <ele>1629</ele>
        <time>2018-09-02T08:05:54Z</time>
      </trkpt>
      <trkpt lat="45.99218" lon="6.47361">
        <ele>1635</ele>
        <time>2018-09-02T08:06:30Z</time>
      </trkpt>
      <trkpt lat="45.99215" lon="6.47348">
        <ele>1636</ele>
        <time>2018-09-02T08:06:39Z</time>
      </trkpt>
      <trkpt lat="45.99217" lon="6.47333">
        <ele>1637</ele>
        <time>2018-09-02T08:06:58Z</time>
      </trkpt>
      <trkpt lat="45.99213" lon="6.4732">
        <ele>1637</ele>
        <time>2018-09-02T08:07:15Z</time>
      </trkpt>
      <trkpt lat="45.99213" lon="6.47295">
        <ele>1638</ele>
        <time>2018-09-02T08:07:39Z</time>
      </trkpt>
      <trkpt lat="45.99217" lon="6.47283">
        <ele>1638</ele>
        <time>2018-09-02T08:07:46Z</time>
      </trkpt>
      <trkpt lat="45.99217" lon="6.4727">
        <ele>1639</ele>
        <time>2018-09-02T08:07:55Z</time>
      </trkpt>
      <trkpt lat="45.99222" lon="6.47235">
        <ele>1643</ele>
        <time>2018-09-02T08:08:37Z</time>
      </trkpt>
      <trkpt lat="45.99217" lon="6.47221">
        <ele>1645</ele>
        <time>2018-09-02T08:09:01Z</time>
      </trkpt>
      <trkpt lat="45.99217" lon="6.472">
        <ele>1648</ele>
        <time>2018-09-02T08:09:17Z</time>
      </trkpt>
      <trkpt lat="45.99216" lon="6.47188">
        <ele>1650</ele>
        <time>2018-09-02T08:09:30Z</time>
      </trkpt>
      <trkpt lat="45.9922" lon="6.47173">
        <ele>1651</ele>
        <time>2018-09-02T08:09:43Z</time>
      </trkpt>
      <trkpt lat="45.99226" lon="6.47142">
        <ele>1657</ele>
        <time>2018-09-02T08:10:20Z</time>
      </trkpt>
      <trkpt lat="45.99225" lon="6.47128">
        <ele>1659</ele>
        <time>2018-09-02T08:10:38Z</time>
      </trkpt>
      <trkpt lat="45.99219" lon="6.47106">
        <ele>1662</ele>
        <time>2018-09-02T08:11:00Z</time>
      </trkpt>
      <trkpt lat="45.99217" lon="6.47083">
        <ele>1665</ele>
        <time>2018-09-02T08:11:22Z</time>
      </trkpt>
      <trkpt lat="45.99215" lon="6.47069">
        <ele>1667</ele>
        <time>2018-09-02T08:11:37Z</time>
      </trkpt>
      <trkpt lat="45.9921" lon="6.47058">
        <ele>1669</ele>
        <time>2018-09-02T08:11:52Z</time>
      </trkpt>
      <trkpt lat="45.99214" lon="6.47027">
        <ele>1670</ele>
        <time>2018-09-02T08:12:16Z</time>
      </trkpt>
      <trkpt lat="45.99214" lon="6.47005">
        <ele>1674</ele>
        <time>2018-09-02T08:12:37Z</time>
      </trkpt>
      <trkpt lat="45.99214" lon="6.46987">
        <ele>1676</ele>
        <time>2018-09-02T08:12:57Z</time>
      </trkpt>
      <trkpt lat="45.9921" lon="6.4696">
        <ele>1678</ele>
        <time>2018-09-02T08:13:19Z</time>
      </trkpt>
      <trkpt lat="45.99203" lon="6.46949">
        <ele>1679</ele>
        <time>2018-09-02T08:13:32Z</time>
      </trkpt>
      <trkpt lat="45.99207" lon="6.46935">
        <ele>1682</ele>
        <time>2018-09-02T08:13:50Z</time>
      </trkpt>
      <trkpt lat="45.9921" lon="6.46917">
        <ele>1683</ele>
        <time>2018-09-02T08:14:06Z</time>
      </trkpt>
      <trkpt lat="45.99215" lon="6.46904">
        <ele>1683</ele>
        <time>2018-09-02T08:14:15Z</time>
      </trkpt>
      <trkpt lat="45.9922" lon="6.46892">
        <ele>1682</ele>
        <time>2018-09-02T08:14:27Z</time>
      </trkpt>
      <trkpt lat="45.99229" lon="6.46884">
        <ele>1682</ele>
        <time>2018-09-02T08:14:37Z</time>
      </trkpt>
      <trkpt lat="45.99229" lon="6.46869">
        <ele>1683</ele>
        <time>2018-09-02T08:14:48Z</time>
      </trkpt>
      <trkpt lat="45.99232" lon="6.46845">
        <ele>1685</ele>
        <time>2018-09-02T08:15:08Z</time>
      </trkpt>
      <trkpt lat="45.99238" lon="6.46833">
        <ele>1690</ele>
        <time>2018-09-02T08:15:26Z</time>
      </trkpt>
      <trkpt lat="45.99238" lon="6.46819">
        <ele>1695</ele>
        <time>2018-09-02T08:15:47Z</time>
      </trkpt>
      <trkpt lat="45.99233" lon="6.46803">
        <ele>1698</ele>
        <time>2018-09-02T08:16:07Z</time>
      </trkpt>
      <trkpt lat="45.99221" lon="6.46787">
        <ele>1698</ele>
        <time>2018-09-02T08:16:25Z</time>
      </trkpt>
      <trkpt lat="45.99211" lon="6.46765">
        <ele>1698</ele>
        <time>2018-09-02T08:16:44Z</time>
      </trkpt>
      <trkpt lat="45.99209" lon="6.46753">
        <ele>1698</ele>
        <time>2018-09-02T08:16:53Z</time>
      </trkpt>
      <trkpt lat="45.99204" lon="6.46741">
        <ele>1698</ele>
        <time>2018-09-02T08:17:03Z</time>
      </trkpt>
      <trkpt lat="45.992" lon="6.46723">
        <ele>1696</ele>
        <time>2018-09-02T08:17:26Z</time>
      </trkpt>
      <trkpt lat="45.99198" lon="6.46708">
        <ele>1697</ele>
        <time>2018-09-02T08:17:40Z</time>
      </trkpt>
      <trkpt lat="45.99202" lon="6.46693">
        <ele>1700</ele>
        <time>2018-09-02T08:17:58Z</time>
      </trkpt>
      <trkpt lat="45.99199" lon="6.46679">
        <ele>1704</ele>
        <time>2018-09-02T08:18:16Z</time>
      </trkpt>
      <trkpt lat="45.99201" lon="6.46662">
        <ele>1709</ele>
        <time>2018-09-02T08:18:42Z</time>
      </trkpt>
      <trkpt lat="45.99204" lon="6.46647">
        <ele>1713</ele>
        <time>2018-09-02T08:19:12Z</time>
      </trkpt>
      <trkpt lat="45.99209" lon="6.46632">
        <ele>1716</ele>
        <time>2018-09-02T08:19:29Z</time>
      </trkpt>
      <trkpt lat="45.99204" lon="6.46621">
        <ele>1721</ele>
        <time>2018-09-02T08:19:48Z</time>
      </trkpt>
      <trkpt lat="45.99216" lon="6.46618">
        <ele>1724</ele>
        <time>2018-09-02T08:20:11Z</time>
      </trkpt>
      <trkpt lat="45.99221" lon="6.46603">
        <ele>1731</ele>
        <time>2018-09-02T08:20:41Z</time>
      </trkpt>
      <trkpt lat="45.99225" lon="6.46592">
        <ele>1736</ele>
        <time>2018-09-02T08:21:11Z</time>
      </trkpt>
      <trkpt lat="45.99222" lon="6.46576">
        <ele>1740</ele>
        <time>2018-09-02T08:21:32Z</time>
      </trkpt>
      <trkpt lat="45.99221" lon="6.4656">
        <ele>1744</ele>
        <time>2018-09-02T08:21:57Z</time>
      </trkpt>
      <trkpt lat="45.99217" lon="6.46547">
        <ele>1749</ele>
        <time>2018-09-02T08:22:21Z</time>
      </trkpt>
      <trkpt lat="45.99218" lon="6.46533">
        <ele>1751</ele>
        <time>2018-09-02T08:22:30Z</time>
      </trkpt>
      <trkpt lat="45.99233" lon="6.46533">
        <ele>1762</ele>
        <time>2018-09-02T08:24:56Z</time>
      </trkpt>
      <trkpt lat="45.99248" lon="6.46518">
        <ele>1771</ele>
        <time>2018-09-02T08:25:44Z</time>
      </trkpt>
      <trkpt lat="45.99258" lon="6.46513">
        <ele>1776</ele>
        <time>2018-09-02T08:26:14Z</time>
      </trkpt>
      <trkpt lat="45.99256" lon="6.465">
        <ele>1780</ele>
        <time>2018-09-02T08:26:38Z</time>
      </trkpt>
      <trkpt lat="45.99244" lon="6.4649">
        <ele>1784</ele>
        <time>2018-09-02T08:27:08Z</time>
      </trkpt>
      <trkpt lat="45.99245" lon="6.46483">
        <ele>1785</ele>
        <time>2018-09-02T08:27:14Z</time>
      </trkpt>
      <trkpt lat="45.99242" lon="6.4647">
        <ele>1787</ele>
        <time>2018-09-02T08:27:27Z</time>
      </trkpt>
      <trkpt lat="45.99241" lon="6.46458">
        <ele>1789</ele>
        <time>2018-09-02T08:27:39Z</time>
      </trkpt>
      <trkpt lat="45.99246" lon="6.46421">
        <ele>1797</ele>
        <time>2018-09-02T08:28:27Z</time>
      </trkpt>
      <trkpt lat="45.99243" lon="6.46405">
        <ele>1800</ele>
        <time>2018-09-02T08:28:47Z</time>
      </trkpt>
      <trkpt lat="45.99239" lon="6.4639">
        <ele>1806</ele>
        <time>2018-09-02T08:29:19Z</time>
      </trkpt>
      <trkpt lat="45.9924" lon="6.46383">
        <ele>1807</ele>
        <time>2018-09-02T08:29:31Z</time>
      </trkpt>
      <trkpt lat="45.9924" lon="6.46373">
        <ele>1810</ele>
        <time>2018-09-02T08:29:49Z</time>
      </trkpt>
      <trkpt lat="45.99239" lon="6.4635">
        <ele>1817</ele>
        <time>2018-09-02T08:30:31Z</time>
      </trkpt>
      <trkpt lat="45.99238" lon="6.46335">
        <ele>1820</ele>
        <time>2018-09-02T08:30:49Z</time>
      </trkpt>
      <trkpt lat="45.99235" lon="6.4632">
        <ele>1824</ele>
        <time>2018-09-02T08:31:13Z</time>
      </trkpt>
      <trkpt lat="45.99232" lon="6.46292">
        <ele>1832</ele>
        <time>2018-09-02T08:32:01Z</time>
      </trkpt>
      <trkpt lat="45.99241" lon="6.46288">
        <ele>1837</ele>
        <time>2018-09-02T08:32:49Z</time>
      </trkpt>
      <trkpt lat="45.99252" lon="6.46289">
        <ele>1841</ele>
        <time>2018-09-02T08:33:13Z</time>
      </trkpt>
      <trkpt lat="45.99263" lon="6.4629">
        <ele>1845</ele>
        <time>2018-09-02T08:33:37Z</time>
      </trkpt>
      <trkpt lat="45.99274" lon="6.46291">
        <ele>1849</ele>
        <time>2018-09-02T08:34:01Z</time>
      </trkpt>
      <trkpt lat="45.99285" lon="6.46294">
        <ele>1855</ele>
        <time>2018-09-02T08:34:37Z</time>
      </trkpt>
      <trkpt lat="45.99289" lon="6.46293">
        <ele>1857</ele>
        <time>2018-09-02T08:34:49Z</time>
      </trkpt>
      <trkpt lat="45.99297" lon="6.46295">
        <ele>1859</ele>
        <time>2018-09-02T08:35:01Z</time>
      </trkpt>
      <trkpt lat="45.99303" lon="6.46292">
        <ele>1862</ele>
        <time>2018-09-02T08:35:19Z</time>
      </trkpt>
      <trkpt lat="45.99311" lon="6.463">
        <ele>1866</ele>
        <time>2018-09-02T08:35:47Z</time>
      </trkpt>
      <trkpt lat="45.99321" lon="6.46301">
        <ele>1870</ele>
        <time>2018-09-02T08:36:07Z</time>
      </trkpt>
      <trkpt lat="45.99332" lon="6.46326">
        <ele>1876</ele>
        <time>2018-09-02T08:36:43Z</time>
      </trkpt>
      <trkpt lat="45.99336" lon="6.46332">
        <ele>1877</ele>
        <time>2018-09-02T08:38:18Z</time>
      </trkpt>
      <trkpt lat="45.99332" lon="6.46338">
        <ele>1878</ele>
        <time>2018-09-02T08:39:30Z</time>
      </trkpt>
      <trkpt lat="45.99336" lon="6.46322">
        <ele>1885</ele>
        <time>2018-09-02T08:47:05Z</time>
      </trkpt>
      <trkpt lat="45.99343" lon="6.46311">
        <ele>1890</ele>
        <time>2018-09-02T08:47:29Z</time>
      </trkpt>
      <trkpt lat="45.99339" lon="6.46296">
        <ele>1893</ele>
        <time>2018-09-02T08:47:47Z</time>
      </trkpt>
      <trkpt lat="45.99337" lon="6.46282">
        <ele>1896</ele>
        <time>2018-09-02T08:48:05Z</time>
      </trkpt>
      <trkpt lat="45.99332" lon="6.46265">
        <ele>1900</ele>
        <time>2018-09-02T08:48:33Z</time>
      </trkpt>
      <trkpt lat="45.99328" lon="6.46251">
        <ele>1906</ele>
        <time>2018-09-02T08:49:15Z</time>
      </trkpt>
      <trkpt lat="45.99337" lon="6.46245">
        <ele>1910</ele>
        <time>2018-09-02T08:49:45Z</time>
      </trkpt>
      <trkpt lat="45.9933" lon="6.46232">
        <ele>1911</ele>
        <time>2018-09-02T08:50:02Z</time>
      </trkpt>
      <trkpt lat="45.99338" lon="6.46225">
        <ele>1919</ele>
        <time>2018-09-02T08:50:42Z</time>
      </trkpt>
      <trkpt lat="45.99332" lon="6.4621">
        <ele>1920</ele>
        <time>2018-09-02T08:51:00Z</time>
      </trkpt>
      <trkpt lat="45.99333" lon="6.46192">
        <ele>1927</ele>
        <time>2018-09-02T08:51:55Z</time>
      </trkpt>
      <trkpt lat="45.99338" lon="6.46166">
        <ele>1936</ele>
        <time>2018-09-02T08:53:07Z</time>
      </trkpt>
      <trkpt lat="45.99337" lon="6.46153">
        <ele>1942</ele>
        <time>2018-09-02T08:53:43Z</time>
      </trkpt>
      <trkpt lat="45.99339" lon="6.46153">
        <ele>1943</ele>
        <time>2018-09-02T08:55:28Z</time>
      </trkpt>
      <trkpt lat="45.99347" lon="6.46157">
        <ele>1944</ele>
        <time>2018-09-02T08:55:37Z</time>
      </trkpt>
      <trkpt lat="45.99356" lon="6.46162">
        <ele>1945</ele>
        <time>2018-09-02T08:55:51Z</time>
      </trkpt>
      <trkpt lat="45.99364" lon="6.46155">
        <ele>1945</ele>
        <time>2018-09-02T08:56:09Z</time>
      </trkpt>
      <trkpt lat="45.9937" lon="6.46144">
        <ele>1949</ele>
        <time>2018-09-02T08:56:19Z</time>
      </trkpt>
      <trkpt lat="45.9938" lon="6.46143">
        <ele>1950</ele>
        <time>2018-09-02T08:56:39Z</time>
      </trkpt>
      <trkpt lat="45.9939" lon="6.46134">
        <ele>1949</ele>
        <time>2018-09-02T08:56:57Z</time>
      </trkpt>
      <trkpt lat="45.994" lon="6.46128">
        <ele>1953</ele>
        <time>2018-09-02T08:57:14Z</time>
      </trkpt>
      <trkpt lat="45.99406" lon="6.46116">
        <ele>1955</ele>
        <time>2018-09-02T08:57:27Z</time>
      </trkpt>
      <trkpt lat="45.99409" lon="6.46101">
        <ele>1959</ele>
        <time>2018-09-02T08:57:47Z</time>
      </trkpt>
      <trkpt lat="45.9941" lon="6.4608">
        <ele>1962</ele>
        <time>2018-09-02T08:58:09Z</time>
      </trkpt>
      <trkpt lat="45.99415" lon="6.46068">
        <ele>1965</ele>
        <time>2018-09-02T08:58:29Z</time>
      </trkpt>
      <trkpt lat="45.99422" lon="6.46055">
        <ele>1968</ele>
        <time>2018-09-02T08:58:47Z</time>
      </trkpt>
      <trkpt lat="45.99425" lon="6.46041">
        <ele>1970</ele>
        <time>2018-09-02T08:59:11Z</time>
      </trkpt>
      <trkpt lat="45.99438" lon="6.46045">
        <ele>1973</ele>
        <time>2018-09-02T08:59:32Z</time>
      </trkpt>
      <trkpt lat="45.99441" lon="6.46028">
        <ele>1977</ele>
        <time>2018-09-02T08:59:50Z</time>
      </trkpt>
      <trkpt lat="45.99456" lon="6.46011">
        <ele>1982</ele>
        <time>2018-09-02T09:00:50Z</time>
      </trkpt>
      <trkpt lat="45.99463" lon="6.45999">
        <ele>1989</ele>
        <time>2018-09-02T09:01:32Z</time>
      </trkpt>
      <trkpt lat="45.99467" lon="6.45983">
        <ele>1990</ele>
        <time>2018-09-02T09:01:56Z</time>
      </trkpt>
      <trkpt lat="45.99473" lon="6.4597">
        <ele>1997</ele>
        <time>2018-09-02T09:02:26Z</time>
      </trkpt>
      <trkpt lat="45.99486" lon="6.45967">
        <ele>2001</ele>
        <time>2018-09-02T09:03:10Z</time>
      </trkpt>
      <trkpt lat="45.99487" lon="6.45951">
        <ele>2003</ele>
        <time>2018-09-02T09:03:53Z</time>
      </trkpt>
      <trkpt lat="45.99496" lon="6.45955">
        <ele>2007</ele>
        <time>2018-09-02T09:04:17Z</time>
      </trkpt>
      <trkpt lat="45.99503" lon="6.45955">
        <ele>2009</ele>
        <time>2018-09-02T09:04:45Z</time>
      </trkpt>
      <trkpt lat="45.99503" lon="6.45944">
        <ele>2014</ele>
        <time>2018-09-02T09:05:00Z</time>
      </trkpt>
      <trkpt lat="45.99509" lon="6.45931">
        <ele>2016</ele>
        <time>2018-09-02T09:05:18Z</time>
      </trkpt>
      <trkpt lat="45.99515" lon="6.45931">
        <ele>2017</ele>
        <time>2018-09-02T09:05:36Z</time>
      </trkpt>
      <trkpt lat="45.99519" lon="6.45923">
        <ele>2020</ele>
        <time>2018-09-02T09:05:54Z</time>
      </trkpt>
      <trkpt lat="45.99524" lon="6.45909">
        <ele>2026</ele>
        <time>2018-09-02T09:06:24Z</time>
      </trkpt>
      <trkpt lat="45.99537" lon="6.45905">
        <ele>2030</ele>
        <time>2018-09-02T09:07:06Z</time>
      </trkpt>
      <trkpt lat="45.99534" lon="6.4589">
        <ele>2033</ele>
        <time>2018-09-02T09:07:20Z</time>
      </trkpt>
      <trkpt lat="45.99533" lon="6.45874">
        <ele>2037</ele>
        <time>2018-09-02T09:07:39Z</time>
      </trkpt>
      <trkpt lat="45.99531" lon="6.45858">
        <ele>2040</ele>
        <time>2018-09-02T09:08:58Z</time>
      </trkpt>
      <trkpt lat="45.99528" lon="6.45842">
        <ele>2042</ele>
        <time>2018-09-02T09:09:14Z</time>
      </trkpt>
      <trkpt lat="45.99538" lon="6.45841">
        <ele>2047</ele>
        <time>2018-09-02T09:09:39Z</time>
      </trkpt>
      <trkpt lat="45.99551" lon="6.45845">
        <ele>2050</ele>
        <time>2018-09-02T09:10:07Z</time>
      </trkpt>
      <trkpt lat="45.99557" lon="6.45835">
        <ele>2058</ele>
        <time>2018-09-02T09:11:19Z</time>
      </trkpt>
      <trkpt lat="45.99562" lon="6.45832">
        <ele>2061</ele>
        <time>2018-09-02T09:12:12Z</time>
      </trkpt>
      <trkpt lat="45.99567" lon="6.45832">
        <ele>2065</ele>
        <time>2018-09-02T09:12:24Z</time>
      </trkpt>
      <trkpt lat="45.99571" lon="6.45826">
        <ele>2066</ele>
        <time>2018-09-02T09:12:42Z</time>
      </trkpt>
      <trkpt lat="45.99581" lon="6.45825">
        <ele>2071</ele>
        <time>2018-09-02T09:13:06Z</time>
      </trkpt>
      <trkpt lat="45.99583" lon="6.45811">
        <ele>2076</ele>
        <time>2018-09-02T09:13:30Z</time>
      </trkpt>
      <trkpt lat="45.99588" lon="6.45799">
        <ele>2082</ele>
        <time>2018-09-02T09:14:48Z</time>
      </trkpt>
      <trkpt lat="45.99598" lon="6.45795">
        <ele>2087</ele>
        <time>2018-09-02T09:15:15Z</time>
      </trkpt>
      <trkpt lat="45.99611" lon="6.45801">
        <ele>2090</ele>
        <time>2018-09-02T09:15:33Z</time>
      </trkpt>
      <trkpt lat="45.99615" lon="6.45786">
        <ele>2096</ele>
        <time>2018-09-02T09:16:09Z</time>
      </trkpt>
      <trkpt lat="45.99624" lon="6.45778">
        <ele>2098</ele>
        <time>2018-09-02T09:16:51Z</time>
      </trkpt>
      <trkpt lat="45.99633" lon="6.4577">
        <ele>2106</ele>
        <time>2018-09-02T09:17:27Z</time>
      </trkpt>
      <trkpt lat="45.99633" lon="6.4575">
        <ele>2110</ele>
        <time>2018-09-02T09:18:07Z</time>
      </trkpt>
      <trkpt lat="45.99643" lon="6.4575">
        <ele>2113</ele>
        <time>2018-09-02T09:18:28Z</time>
      </trkpt>
      <trkpt lat="45.99644" lon="6.45736">
        <ele>2115</ele>
        <time>2018-09-02T09:18:46Z</time>
      </trkpt>
      <trkpt lat="45.99653" lon="6.45736">
        <ele>2118</ele>
        <time>2018-09-02T09:19:11Z</time>
      </trkpt>
      <trkpt lat="45.99661" lon="6.45729">
        <ele>2123</ele>
        <time>2018-09-02T09:19:44Z</time>
      </trkpt>
      <trkpt lat="45.99672" lon="6.45721">
        <ele>2123</ele>
        <time>2018-09-02T09:21:56Z</time>
      </trkpt>
      <trkpt lat="45.99682" lon="6.45717">
        <ele>2134</ele>
        <time>2018-09-02T09:22:26Z</time>
      </trkpt>
      <trkpt lat="45.99686" lon="6.45706">
        <ele>2133</ele>
        <time>2018-09-02T09:22:50Z</time>
      </trkpt>
      <trkpt lat="45.99694" lon="6.45715">
        <ele>2138</ele>
        <time>2018-09-02T09:23:05Z</time>
      </trkpt>
      <trkpt lat="45.99703" lon="6.45722">
        <ele>2140</ele>
        <time>2018-09-02T09:23:25Z</time>
      </trkpt>
      <trkpt lat="45.99705" lon="6.4573">
        <ele>2141</ele>
        <time>2018-09-02T09:23:49Z</time>
      </trkpt>
      <trkpt lat="45.9971" lon="6.45735">
        <ele>2144</ele>
        <time>2018-09-02T09:24:01Z</time>
      </trkpt>
      <trkpt lat="45.99714" lon="6.45742">
        <ele>2147</ele>
        <time>2018-09-02T09:24:13Z</time>
      </trkpt>
      <trkpt lat="45.99721" lon="6.45752">
        <ele>2150</ele>
        <time>2018-09-02T09:25:00Z</time>
      </trkpt>
      <trkpt lat="45.99722" lon="6.45762">
        <ele>2147</ele>
        <time>2018-09-02T09:25:18Z</time>
      </trkpt>
      <trkpt lat="45.99727" lon="6.45772">
        <ele>2154</ele>
        <time>2018-09-02T09:25:40Z</time>
      </trkpt>
      <trkpt lat="45.99731" lon="6.45777">
        <ele>2158</ele>
        <time>2018-09-02T09:26:06Z</time>
      </trkpt>
      <trkpt lat="45.99738" lon="6.45787">
        <ele>2162</ele>
        <time>2018-09-02T09:27:13Z</time>
      </trkpt>
      <trkpt lat="45.9974" lon="6.45773">
        <ele>2165</ele>
        <time>2018-09-02T09:31:45Z</time>
      </trkpt>
      <trkpt lat="45.99748" lon="6.4578">
        <ele>2170</ele>
        <time>2018-09-02T09:32:00Z</time>
      </trkpt>
      <trkpt lat="45.99757" lon="6.45784">
        <ele>2172</ele>
        <time>2018-09-02T09:32:54Z</time>
      </trkpt>
      <trkpt lat="45.99765" lon="6.45781">
        <ele>2183</ele>
        <time>2018-09-02T09:34:02Z</time>
      </trkpt>
      <trkpt lat="45.99767" lon="6.45793">
        <ele>2189</ele>
        <time>2018-09-02T09:34:22Z</time>
      </trkpt>
      <trkpt lat="45.99774" lon="6.45783">
        <ele>2194</ele>
        <time>2018-09-02T09:37:35Z</time>
      </trkpt>
      <trkpt lat="45.99773" lon="6.4577">
        <ele>2198</ele>
        <time>2018-09-02T09:38:07Z</time>
      </trkpt>
      <trkpt lat="45.99784" lon="6.4576">
        <ele>2206</ele>
        <time>2018-09-02T09:38:56Z</time>
      </trkpt>
      <trkpt lat="45.9979" lon="6.45749">
        <ele>2211</ele>
        <time>2018-09-02T09:39:20Z</time>
      </trkpt>
      <trkpt lat="45.99798" lon="6.45744">
        <ele>2214</ele>
        <time>2018-09-02T09:40:08Z</time>
      </trkpt>
      <trkpt lat="45.99796" lon="6.45733">
        <ele>2222</ele>
        <time>2018-09-02T09:41:21Z</time>
      </trkpt>
      <trkpt lat="45.998" lon="6.45725">
        <ele>2224</ele>
        <time>2018-09-02T09:41:45Z</time>
      </trkpt>
      <trkpt lat="45.99801" lon="6.45716">
        <ele>2228</ele>
        <time>2018-09-02T09:41:57Z</time>
      </trkpt>
      <trkpt lat="45.99803" lon="6.45709">
        <ele>2233</ele>
        <time>2018-09-02T09:42:09Z</time>
      </trkpt>
      <trkpt lat="45.99809" lon="6.45698">
        <ele>2236</ele>
        <time>2018-09-02T09:42:45Z</time>
      </trkpt>
      <trkpt lat="45.99811" lon="6.45703">
        <ele>2239</ele>
        <time>2018-09-02T09:42:50Z</time>
      </trkpt>
      <trkpt lat="45.99809" lon="6.45705">
        <ele>2246</ele>
        <time>2018-09-02T09:52:16Z</time>
      </trkpt>
      <trkpt lat="45.99808" lon="6.45698">
        <ele>2244</ele>
        <time>2018-09-02T09:52:21Z</time>
      </trkpt>
      <trkpt lat="45.99816" lon="6.45698">
        <ele>2240</ele>
        <time>2018-09-02T09:52:41Z</time>
      </trkpt>
      <trkpt lat="45.99821" lon="6.45698">
        <ele>2240</ele>
        <time>2018-09-02T09:52:47Z</time>
      </trkpt>
      <trkpt lat="45.99825" lon="6.45698">
        <ele>2236</ele>
        <time>2018-09-02T09:52:59Z</time>
      </trkpt>
      <trkpt lat="45.9983" lon="6.45699">
        <ele>2236</ele>
        <time>2018-09-02T09:53:05Z</time>
      </trkpt>
      <trkpt lat="45.99837" lon="6.45699">
        <ele>2233</ele>
        <time>2018-09-02T09:53:23Z</time>
      </trkpt>
      <trkpt lat="45.99841" lon="6.45695">
        <ele>2229</ele>
        <time>2018-09-02T09:53:35Z</time>
      </trkpt>
      <trkpt lat="45.99846" lon="6.45691">
        <ele>2227</ele>
        <time>2018-09-02T09:53:53Z</time>
      </trkpt>
      <trkpt lat="45.99849" lon="6.45682">
        <ele>2225</ele>
        <time>2018-09-02T09:55:17Z</time>
      </trkpt>
      <trkpt lat="45.99854" lon="6.45683">
        <ele>2224</ele>
        <time>2018-09-02T09:55:44Z</time>
      </trkpt>
      <trkpt lat="45.99858" lon="6.45678">
        <ele>2219</ele>
        <time>2018-09-02T09:56:09Z</time>
      </trkpt>
      <trkpt lat="45.99867" lon="6.45667">
        <ele>2213</ele>
        <time>2018-09-02T09:56:45Z</time>
      </trkpt>
      <trkpt lat="45.99873" lon="6.45664">
        <ele>2210</ele>
        <time>2018-09-02T09:56:57Z</time>
      </trkpt>
      <trkpt lat="45.99879" lon="6.4566">
        <ele>2208</ele>
        <time>2018-09-02T09:57:39Z</time>
      </trkpt>
      <trkpt lat="45.9989" lon="6.45652">
        <ele>2203</ele>
        <time>2018-09-02T09:59:03Z</time>
      </trkpt>
      <trkpt lat="45.99895" lon="6.45649">
        <ele>2201</ele>
        <time>2018-09-02T09:59:15Z</time>
      </trkpt>
      <trkpt lat="45.99899" lon="6.45643">
        <ele>2199</ele>
        <time>2018-09-02T09:59:27Z</time>
      </trkpt>
      <trkpt lat="45.99905" lon="6.45641">
        <ele>2197</ele>
        <time>2018-09-02T09:59:39Z</time>
      </trkpt>
      <trkpt lat="45.99908" lon="6.45635">
        <ele>2198</ele>
        <time>2018-09-02T10:00:03Z</time>
      </trkpt>
      <trkpt lat="45.99914" lon="6.45632">
        <ele>2194</ele>
        <time>2018-09-02T10:00:23Z</time>
      </trkpt>
      <trkpt lat="45.99915" lon="6.45625">
        <ele>2191</ele>
        <time>2018-09-02T10:00:33Z</time>
      </trkpt>
      <trkpt lat="45.99917" lon="6.4562">
        <ele>2190</ele>
        <time>2018-09-02T10:00:44Z</time>
      </trkpt>
      <trkpt lat="45.99918" lon="6.45612">
        <ele>2186</ele>
        <time>2018-09-02T10:00:56Z</time>
      </trkpt>
      <trkpt lat="45.99921" lon="6.45604">
        <ele>2184</ele>
        <time>2018-09-02T10:01:08Z</time>
      </trkpt>
      <trkpt lat="45.99925" lon="6.45602">
        <ele>2177</ele>
        <time>2018-09-02T10:01:20Z</time>
      </trkpt>
      <trkpt lat="45.99934" lon="6.456">
        <ele>2181</ele>
        <time>2018-09-02T10:01:43Z</time>
      </trkpt>
      <trkpt lat="45.99939" lon="6.45598">
        <ele>2179</ele>
        <time>2018-09-02T10:01:57Z</time>
      </trkpt>
      <trkpt lat="45.99943" lon="6.45588">
        <ele>2179</ele>
        <time>2018-09-02T10:02:10Z</time>
      </trkpt>
      <trkpt lat="45.99951" lon="6.45588">
        <ele>2174</ele>
        <time>2018-09-02T10:02:28Z</time>
      </trkpt>
      <trkpt lat="45.99955" lon="6.45589">
        <ele>2175</ele>
        <time>2018-09-02T10:02:34Z</time>
      </trkpt>
      <trkpt lat="45.99963" lon="6.45585">
        <ele>2176</ele>
        <time>2018-09-02T10:02:45Z</time>
      </trkpt>
      <trkpt lat="45.99972" lon="6.45566">
        <ele>2169</ele>
        <time>2018-09-02T10:03:29Z</time>
      </trkpt>
      <trkpt lat="45.99974" lon="6.4556">
        <ele>2166</ele>
        <time>2018-09-02T10:03:41Z</time>
      </trkpt>
      <trkpt lat="45.99978" lon="6.45554">
        <ele>2163</ele>
        <time>2018-09-02T10:04:11Z</time>
      </trkpt>
      <trkpt lat="45.99981" lon="6.45545">
        <ele>2162</ele>
        <time>2018-09-02T10:04:23Z</time>
      </trkpt>
      <trkpt lat="45.99987" lon="6.45546">
        <ele>2159</ele>
        <time>2018-09-02T10:04:35Z</time>
      </trkpt>
      <trkpt lat="45.99989" lon="6.45538">
        <ele>2157</ele>
        <time>2018-09-02T10:04:59Z</time>
      </trkpt>
      <trkpt lat="45.99983" lon="6.45533">
        <ele>2152</ele>
        <time>2018-09-02T10:05:17Z</time>
      </trkpt>
      <trkpt lat="45.99978" lon="6.45531">
        <ele>2154</ele>
        <time>2018-09-02T10:05:23Z</time>
      </trkpt>
      <trkpt lat="45.9997" lon="6.4552">
        <ele>2146</ele>
        <time>2018-09-02T10:05:47Z</time>
      </trkpt>
      <trkpt lat="45.99964" lon="6.45513">
        <ele>2145</ele>
        <time>2018-09-02T10:05:59Z</time>
      </trkpt>
      <trkpt lat="45.9996" lon="6.45508">
        <ele>2143</ele>
        <time>2018-09-02T10:06:23Z</time>
      </trkpt>
      <trkpt lat="45.99955" lon="6.45502">
        <ele>2138</ele>
        <time>2018-09-02T10:06:35Z</time>
      </trkpt>
      <trkpt lat="45.99955" lon="6.45493">
        <ele>2138</ele>
        <time>2018-09-02T10:06:47Z</time>
      </trkpt>
      <trkpt lat="45.9996" lon="6.45489">
        <ele>2138</ele>
        <time>2018-09-02T10:07:11Z</time>
      </trkpt>
      <trkpt lat="45.99955" lon="6.45482">
        <ele>2133</ele>
        <time>2018-09-02T10:07:24Z</time>
      </trkpt>
      <trkpt lat="45.99959" lon="6.45472">
        <ele>2130</ele>
        <time>2018-09-02T10:08:08Z</time>
      </trkpt>
      <trkpt lat="45.99959" lon="6.45464">
        <ele>2128</ele>
        <time>2018-09-02T10:08:20Z</time>
      </trkpt>
      <trkpt lat="45.99956" lon="6.45459">
        <ele>2127</ele>
        <time>2018-09-02T10:08:26Z</time>
      </trkpt>
      <trkpt lat="45.99954" lon="6.45453">
        <ele>2126</ele>
        <time>2018-09-02T10:08:31Z</time>
      </trkpt>
      <trkpt lat="45.99954" lon="6.45432">
        <ele>2119</ele>
        <time>2018-09-02T10:08:56Z</time>
      </trkpt>
      <trkpt lat="45.9995" lon="6.45427">
        <ele>2117</ele>
        <time>2018-09-02T10:09:14Z</time>
      </trkpt>
      <trkpt lat="45.99955" lon="6.45419">
        <ele>2113</ele>
        <time>2018-09-02T10:09:26Z</time>
      </trkpt>
      <trkpt lat="45.99957" lon="6.45409">
        <ele>2112</ele>
        <time>2018-09-02T10:09:38Z</time>
      </trkpt>
      <trkpt lat="45.99952" lon="6.45405">
        <ele>2107</ele>
        <time>2018-09-02T10:09:55Z</time>
      </trkpt>
      <trkpt lat="45.99946" lon="6.45407">
        <ele>2106</ele>
        <time>2018-09-02T10:10:05Z</time>
      </trkpt>
      <trkpt lat="45.99942" lon="6.45404">
        <ele>2103</ele>
        <time>2018-09-02T10:10:20Z</time>
      </trkpt>
      <trkpt lat="45.99945" lon="6.45397">
        <ele>2100</ele>
        <time>2018-09-02T10:10:30Z</time>
      </trkpt>
      <trkpt lat="45.99938" lon="6.45397">
        <ele>2098</ele>
        <time>2018-09-02T10:11:06Z</time>
      </trkpt>
      <trkpt lat="45.99932" lon="6.45395">
        <ele>2096</ele>
        <time>2018-09-02T10:11:18Z</time>
      </trkpt>
      <trkpt lat="45.99933" lon="6.45383">
        <ele>2092</ele>
        <time>2018-09-02T10:11:36Z</time>
      </trkpt>
      <trkpt lat="45.9993" lon="6.45379">
        <ele>2090</ele>
        <time>2018-09-02T10:11:48Z</time>
      </trkpt>
      <trkpt lat="45.9993" lon="6.45373">
        <ele>2086</ele>
        <time>2018-09-02T10:12:12Z</time>
      </trkpt>
      <trkpt lat="45.99932" lon="6.45366">
        <ele>2083</ele>
        <time>2018-09-02T10:12:24Z</time>
      </trkpt>
      <trkpt lat="45.99932" lon="6.45359">
        <ele>2078</ele>
        <time>2018-09-02T10:12:46Z</time>
      </trkpt>
      <trkpt lat="45.99937" lon="6.45358">
        <ele>2075</ele>
        <time>2018-09-02T10:13:08Z</time>
      </trkpt>
      <trkpt lat="45.99952" lon="6.45362">
        <ele>2070</ele>
        <time>2018-09-02T10:13:32Z</time>
      </trkpt>
      <trkpt lat="45.99956" lon="6.4536">
        <ele>2068</ele>
        <time>2018-09-02T10:13:38Z</time>
      </trkpt>
      <trkpt lat="45.99961" lon="6.45353">
        <ele>2065</ele>
        <time>2018-09-02T10:13:50Z</time>
      </trkpt>
      <trkpt lat="45.99962" lon="6.45346">
        <ele>2063</ele>
        <time>2018-09-02T10:14:02Z</time>
      </trkpt>
      <trkpt lat="45.99968" lon="6.45338">
        <ele>2059</ele>
        <time>2018-09-02T10:14:14Z</time>
      </trkpt>
      <trkpt lat="45.99973" lon="6.45336">
        <ele>2057</ele>
        <time>2018-09-02T10:14:20Z</time>
      </trkpt>
      <trkpt lat="45.99984" lon="6.4532">
        <ele>2051</ele>
        <time>2018-09-02T10:14:44Z</time>
      </trkpt>
      <trkpt lat="45.99981" lon="6.45314">
        <ele>2047</ele>
        <time>2018-09-02T10:14:49Z</time>
      </trkpt>
      <trkpt lat="45.99986" lon="6.45311">
        <ele>2045</ele>
        <time>2018-09-02T10:14:57Z</time>
      </trkpt>
      <trkpt lat="45.99983" lon="6.45305">
        <ele>2044</ele>
        <time>2018-09-02T10:15:03Z</time>
      </trkpt>
      <trkpt lat="45.99972" lon="6.45296">
        <ele>2041</ele>
        <time>2018-09-02T10:15:16Z</time>
      </trkpt>
      <trkpt lat="45.99968" lon="6.45285">
        <ele>2037</ele>
        <time>2018-09-02T10:15:28Z</time>
      </trkpt>
      <trkpt lat="45.99966" lon="6.45277">
        <ele>2036</ele>
        <time>2018-09-02T10:15:35Z</time>
      </trkpt>
      <trkpt lat="45.99959" lon="6.45258">
        <ele>2030</ele>
        <time>2018-09-02T10:15:57Z</time>
      </trkpt>
      <trkpt lat="45.99957" lon="6.45251">
        <ele>2027</ele>
        <time>2018-09-02T10:16:09Z</time>
      </trkpt>
      <trkpt lat="45.99966" lon="6.4524">
        <ele>2020</ele>
        <time>2018-09-02T10:16:39Z</time>
      </trkpt>
      <trkpt lat="45.9997" lon="6.45234">
        <ele>2018</ele>
        <time>2018-09-02T10:16:51Z</time>
      </trkpt>
      <trkpt lat="45.99967" lon="6.45227">
        <ele>2015</ele>
        <time>2018-09-02T10:17:03Z</time>
      </trkpt>
      <trkpt lat="45.9996" lon="6.45228">
        <ele>2012</ele>
        <time>2018-09-02T10:17:34Z</time>
      </trkpt>
      <trkpt lat="45.99955" lon="6.4522">
        <ele>2010</ele>
        <time>2018-09-02T10:17:52Z</time>
      </trkpt>
      <trkpt lat="45.99953" lon="6.45207">
        <ele>2006</ele>
        <time>2018-09-02T10:18:03Z</time>
      </trkpt>
      <trkpt lat="45.9995" lon="6.45199">
        <ele>2007</ele>
        <time>2018-09-02T10:18:11Z</time>
      </trkpt>
      <trkpt lat="45.99946" lon="6.45196">
        <ele>2006</ele>
        <time>2018-09-02T10:22:11Z</time>
      </trkpt>
      <trkpt lat="45.99942" lon="6.45187">
        <ele>2004</ele>
        <time>2018-09-02T10:22:22Z</time>
      </trkpt>
      <trkpt lat="45.99935" lon="6.45179">
        <ele>2002</ele>
        <time>2018-09-02T10:22:32Z</time>
      </trkpt>
      <trkpt lat="45.9993" lon="6.45171">
        <ele>2004</ele>
        <time>2018-09-02T10:22:42Z</time>
      </trkpt>
      <trkpt lat="45.99929" lon="6.45159">
        <ele>1999</ele>
        <time>2018-09-02T10:22:53Z</time>
      </trkpt>
      <trkpt lat="45.99928" lon="6.4515">
        <ele>2000</ele>
        <time>2018-09-02T10:23:01Z</time>
      </trkpt>
      <trkpt lat="45.99926" lon="6.45139">
        <ele>1996</ele>
        <time>2018-09-02T10:23:13Z</time>
      </trkpt>
      <trkpt lat="45.99924" lon="6.45127">
        <ele>1997</ele>
        <time>2018-09-02T10:23:25Z</time>
      </trkpt>
      <trkpt lat="45.99921" lon="6.45113">
        <ele>1993</ele>
        <time>2018-09-02T10:23:38Z</time>
      </trkpt>
      <trkpt lat="45.99919" lon="6.45106">
        <ele>1995</ele>
        <time>2018-09-02T10:23:44Z</time>
      </trkpt>
      <trkpt lat="45.99915" lon="6.45096">
        <ele>1993</ele>
        <time>2018-09-02T10:23:56Z</time>
      </trkpt>
      <trkpt lat="45.99915" lon="6.45089">
        <ele>1992</ele>
        <time>2018-09-02T10:24:02Z</time>
      </trkpt>
      <trkpt lat="45.99911" lon="6.45079">
        <ele>1992</ele>
        <time>2018-09-02T10:24:14Z</time>
      </trkpt>
      <trkpt lat="45.99911" lon="6.45069">
        <ele>1990</ele>
        <time>2018-09-02T10:24:24Z</time>
      </trkpt>
      <trkpt lat="45.99906" lon="6.45036">
        <ele>1983</ele>
        <time>2018-09-02T10:24:58Z</time>
      </trkpt>
      <trkpt lat="45.99905" lon="6.45028">
        <ele>1981</ele>
        <time>2018-09-02T10:25:04Z</time>
      </trkpt>
      <trkpt lat="45.99904" lon="6.45022">
        <ele>1983</ele>
        <time>2018-09-02T10:25:10Z</time>
      </trkpt>
      <trkpt lat="45.99904" lon="6.45016">
        <ele>1983</ele>
        <time>2018-09-02T10:25:16Z</time>
      </trkpt>
      <trkpt lat="45.99905" lon="6.44994">
        <ele>1977</ele>
        <time>2018-09-02T10:25:34Z</time>
      </trkpt>
      <trkpt lat="45.99909" lon="6.44975">
        <ele>1977</ele>
        <time>2018-09-02T10:25:58Z</time>
      </trkpt>
      <trkpt lat="45.9991" lon="6.44939">
        <ele>1972</ele>
        <time>2018-09-02T10:26:29Z</time>
      </trkpt>
      <trkpt lat="45.9991" lon="6.44932">
        <ele>1970</ele>
        <time>2018-09-02T10:26:35Z</time>
      </trkpt>
      <trkpt lat="45.99909" lon="6.44925">
        <ele>1970</ele>
        <time>2018-09-02T10:26:41Z</time>
      </trkpt>
      <trkpt lat="45.99912" lon="6.44907">
        <ele>1964</ele>
        <time>2018-09-02T10:27:01Z</time>
      </trkpt>
      <trkpt lat="45.99916" lon="6.44902">
        <ele>1959</ele>
        <time>2018-09-02T10:27:22Z</time>
      </trkpt>
      <trkpt lat="45.99918" lon="6.44895">
        <ele>1966</ele>
        <time>2018-09-02T10:27:39Z</time>
      </trkpt>
      <trkpt lat="45.99916" lon="6.44881">
        <ele>1957</ele>
        <time>2018-09-02T10:27:51Z</time>
      </trkpt>
      <trkpt lat="45.99918" lon="6.44862">
        <ele>1954</ele>
        <time>2018-09-02T10:28:15Z</time>
      </trkpt>
      <trkpt lat="45.99917" lon="6.44853">
        <ele>1954</ele>
        <time>2018-09-02T10:28:27Z</time>
      </trkpt>
      <trkpt lat="45.99917" lon="6.44843">
        <ele>1953</ele>
        <time>2018-09-02T10:28:45Z</time>
      </trkpt>
      <trkpt lat="45.99917" lon="6.44831">
        <ele>1950</ele>
        <time>2018-09-02T10:28:57Z</time>
      </trkpt>
      <trkpt lat="45.99918" lon="6.44819">
        <ele>1947</ele>
        <time>2018-09-02T10:29:09Z</time>
      </trkpt>
      <trkpt lat="45.99916" lon="6.44813">
        <ele>1947</ele>
        <time>2018-09-02T10:29:15Z</time>
      </trkpt>
      <trkpt lat="45.99911" lon="6.44795">
        <ele>1947</ele>
        <time>2018-09-02T10:29:33Z</time>
      </trkpt>
      <trkpt lat="45.9991" lon="6.44784">
        <ele>1945</ele>
        <time>2018-09-02T10:29:45Z</time>
      </trkpt>
      <trkpt lat="45.99915" lon="6.44753">
        <ele>1938</ele>
        <time>2018-09-02T10:30:33Z</time>
      </trkpt>
      <trkpt lat="45.99917" lon="6.4474">
        <ele>1933</ele>
        <time>2018-09-02T10:30:46Z</time>
      </trkpt>
      <trkpt lat="45.99916" lon="6.44733">
        <ele>1933</ele>
        <time>2018-09-02T10:30:52Z</time>
      </trkpt>
      <trkpt lat="45.99916" lon="6.44724">
        <ele>1931</ele>
        <time>2018-09-02T10:31:00Z</time>
      </trkpt>
      <trkpt lat="45.99912" lon="6.44719">
        <ele>1933</ele>
        <time>2018-09-02T10:31:24Z</time>
      </trkpt>
      <trkpt lat="45.99911" lon="6.44712">
        <ele>1933</ele>
        <time>2018-09-02T10:31:29Z</time>
      </trkpt>
      <trkpt lat="45.99911" lon="6.44705">
        <ele>1932</ele>
        <time>2018-09-02T10:31:36Z</time>
      </trkpt>
      <trkpt lat="45.99907" lon="6.44701">
        <ele>1930</ele>
        <time>2018-09-02T10:31:46Z</time>
      </trkpt>
      <trkpt lat="45.99904" lon="6.44695">
        <ele>1935</ele>
        <time>2018-09-02T10:31:56Z</time>
      </trkpt>
      <trkpt lat="45.99905" lon="6.44688">
        <ele>1933</ele>
        <time>2018-09-02T10:32:02Z</time>
      </trkpt>
      <trkpt lat="45.99905" lon="6.44679">
        <ele>1930</ele>
        <time>2018-09-02T10:32:14Z</time>
      </trkpt>
      <trkpt lat="45.99908" lon="6.44668">
        <ele>1928</ele>
        <time>2018-09-02T10:32:26Z</time>
      </trkpt>
      <trkpt lat="45.99908" lon="6.44656">
        <ele>1926</ele>
        <time>2018-09-02T10:32:38Z</time>
      </trkpt>
      <trkpt lat="45.99908" lon="6.44647">
        <ele>1926</ele>
        <time>2018-09-02T10:32:50Z</time>
      </trkpt>
      <trkpt lat="45.99904" lon="6.44641">
        <ele>1926</ele>
        <time>2018-09-02T10:33:08Z</time>
      </trkpt>
      <trkpt lat="45.99902" lon="6.4463">
        <ele>1926</ele>
        <time>2018-09-02T10:33:20Z</time>
      </trkpt>
      <trkpt lat="45.99901" lon="6.44624">
        <ele>1928</ele>
        <time>2018-09-02T10:33:25Z</time>
      </trkpt>
      <trkpt lat="45.999" lon="6.44617">
        <ele>1927</ele>
        <time>2018-09-02T10:33:30Z</time>
      </trkpt>
      <trkpt lat="45.99897" lon="6.4461">
        <ele>1927</ele>
        <time>2018-09-02T10:33:35Z</time>
      </trkpt>
      <trkpt lat="45.99894" lon="6.44606">
        <ele>1927</ele>
        <time>2018-09-02T10:33:40Z</time>
      </trkpt>
      <trkpt lat="45.99885" lon="6.44605">
        <ele>1928</ele>
        <time>2018-09-02T10:33:50Z</time>
      </trkpt>
      <trkpt lat="45.99882" lon="6.44594">
        <ele>1932</ele>
        <time>2018-09-02T10:34:02Z</time>
      </trkpt>
      <trkpt lat="45.9989" lon="6.44585">
        <ele>1932</ele>
        <time>2018-09-02T10:35:08Z</time>
      </trkpt>
      <trkpt lat="45.99887" lon="6.4458">
        <ele>1936</ele>
        <time>2018-09-02T10:35:11Z</time>
      </trkpt>
      <trkpt lat="45.99885" lon="6.44573">
        <ele>1937</ele>
        <time>2018-09-02T10:35:16Z</time>
      </trkpt>
      <trkpt lat="45.99884" lon="6.44564">
        <ele>1938</ele>
        <time>2018-09-02T10:35:26Z</time>
      </trkpt>
      <trkpt lat="45.99887" lon="6.44558">
        <ele>1942</ele>
        <time>2018-09-02T10:35:38Z</time>
      </trkpt>
      <trkpt lat="45.99883" lon="6.4455">
        <ele>1940</ele>
        <time>2018-09-02T10:35:50Z</time>
      </trkpt>
      <trkpt lat="45.9988" lon="6.44538">
        <ele>1945</ele>
        <time>2018-09-02T10:36:01Z</time>
      </trkpt>
      <trkpt lat="45.99879" lon="6.44525">
        <ele>1944</ele>
        <time>2018-09-02T10:36:12Z</time>
      </trkpt>
      <trkpt lat="45.99881" lon="6.44518">
        <ele>1945</ele>
        <time>2018-09-02T10:36:16Z</time>
      </trkpt>
      <trkpt lat="45.99882" lon="6.44509">
        <ele>1946</ele>
        <time>2018-09-02T10:36:27Z</time>
      </trkpt>
      <trkpt lat="45.9988" lon="6.44503">
        <ele>1949</ele>
        <time>2018-09-02T10:36:33Z</time>
      </trkpt>
      <trkpt lat="45.99879" lon="6.44491">
        <ele>1950</ele>
        <time>2018-09-02T10:36:45Z</time>
      </trkpt>
      <trkpt lat="45.99877" lon="6.44484">
        <ele>1953</ele>
        <time>2018-09-02T10:36:51Z</time>
      </trkpt>
      <trkpt lat="45.99875" lon="6.44473">
        <ele>1956</ele>
        <time>2018-09-02T10:37:02Z</time>
      </trkpt>
      <trkpt lat="45.99876" lon="6.44467">
        <ele>1951</ele>
        <time>2018-09-02T10:37:38Z</time>
      </trkpt>
      <trkpt lat="45.99872" lon="6.44463">
        <ele>1950</ele>
        <time>2018-09-02T10:39:53Z</time>
      </trkpt>
      <trkpt lat="45.99867" lon="6.44462">
        <ele>1948</ele>
        <time>2018-09-02T10:39:59Z</time>
      </trkpt>
      <trkpt lat="45.9986" lon="6.44467">
        <ele>1948</ele>
        <time>2018-09-02T10:40:13Z</time>
      </trkpt>
      <trkpt lat="45.99857" lon="6.44472">
        <ele>1946</ele>
        <time>2018-09-02T10:40:19Z</time>
      </trkpt>
      <trkpt lat="45.99854" lon="6.44478">
        <ele>1945</ele>
        <time>2018-09-02T10:40:24Z</time>
      </trkpt>
      <trkpt lat="45.99852" lon="6.44484">
        <ele>1943</ele>
        <time>2018-09-02T10:40:29Z</time>
      </trkpt>
      <trkpt lat="45.99849" lon="6.4449">
        <ele>1944</ele>
        <time>2018-09-02T10:40:34Z</time>
      </trkpt>
      <trkpt lat="45.99847" lon="6.44496">
        <ele>1943</ele>
        <time>2018-09-02T10:40:38Z</time>
      </trkpt>
      <trkpt lat="45.99845" lon="6.44504">
        <ele>1943</ele>
        <time>2018-09-02T10:40:43Z</time>
      </trkpt>
      <trkpt lat="45.99841" lon="6.44509">
        <ele>1944</ele>
        <time>2018-09-02T10:40:48Z</time>
      </trkpt>
      <trkpt lat="45.99838" lon="6.44513">
        <ele>1940</ele>
        <time>2018-09-02T10:40:53Z</time>
      </trkpt>
      <trkpt lat="45.99834" lon="6.44517">
        <ele>1942</ele>
        <time>2018-09-02T10:40:58Z</time>
      </trkpt>
      <trkpt lat="45.99827" lon="6.44521">
        <ele>1943</ele>
        <time>2018-09-02T10:41:12Z</time>
      </trkpt>
      <trkpt lat="45.99822" lon="6.44524">
        <ele>1941</ele>
        <time>2018-09-02T10:41:18Z</time>
      </trkpt>
      <trkpt lat="45.99809" lon="6.44533">
        <ele>1941</ele>
        <time>2018-09-02T10:41:33Z</time>
      </trkpt>
      <trkpt lat="45.99803" lon="6.44532">
        <ele>1942</ele>
        <time>2018-09-02T10:41:59Z</time>
      </trkpt>
      <trkpt lat="45.99803" lon="6.44523">
        <ele>1938</ele>
        <time>2018-09-02T10:42:11Z</time>
      </trkpt>
      <trkpt lat="45.99808" lon="6.44514">
        <ele>1934</ele>
        <time>2018-09-02T10:42:23Z</time>
      </trkpt>
      <trkpt lat="45.99809" lon="6.44506">
        <ele>1931</ele>
        <time>2018-09-02T10:42:35Z</time>
      </trkpt>
      <trkpt lat="45.99811" lon="6.44498">
        <ele>1928</ele>
        <time>2018-09-02T10:42:59Z</time>
      </trkpt>
      <trkpt lat="45.99816" lon="6.44493">
        <ele>1924</ele>
        <time>2018-09-02T10:43:17Z</time>
      </trkpt>
      <trkpt lat="45.99819" lon="6.44485">
        <ele>1923</ele>
        <time>2018-09-02T10:43:35Z</time>
      </trkpt>
      <trkpt lat="45.99814" lon="6.44478">
        <ele>1919</ele>
        <time>2018-09-02T10:43:53Z</time>
      </trkpt>
      <trkpt lat="45.99808" lon="6.44464">
        <ele>1913</ele>
        <time>2018-09-02T10:44:17Z</time>
      </trkpt>
      <trkpt lat="45.99803" lon="6.44464">
        <ele>1913</ele>
        <time>2018-09-02T10:44:24Z</time>
      </trkpt>
      <trkpt lat="45.99796" lon="6.44461">
        <ele>1909</ele>
        <time>2018-09-02T10:44:36Z</time>
      </trkpt>
      <trkpt lat="45.99785" lon="6.44445">
        <ele>1905</ele>
        <time>2018-09-02T10:45:00Z</time>
      </trkpt>
      <trkpt lat="45.99777" lon="6.44441">
        <ele>1904</ele>
        <time>2018-09-02T10:45:30Z</time>
      </trkpt>
      <trkpt lat="45.99767" lon="6.44429">
        <ele>1899</ele>
        <time>2018-09-02T10:45:48Z</time>
      </trkpt>
      <trkpt lat="45.9976" lon="6.44428">
        <ele>1898</ele>
        <time>2018-09-02T10:45:56Z</time>
      </trkpt>
      <trkpt lat="45.99756" lon="6.44425">
        <ele>1896</ele>
        <time>2018-09-02T10:46:36Z</time>
      </trkpt>
      <trkpt lat="45.99752" lon="6.44423">
        <ele>1896</ele>
        <time>2018-09-02T10:46:41Z</time>
      </trkpt>
      <trkpt lat="45.99747" lon="6.44422">
        <ele>1895</ele>
        <time>2018-09-02T10:46:46Z</time>
      </trkpt>
      <trkpt lat="45.99737" lon="6.44424">
        <ele>1892</ele>
        <time>2018-09-02T10:46:55Z</time>
      </trkpt>
      <trkpt lat="45.99732" lon="6.44423">
        <ele>1893</ele>
        <time>2018-09-02T10:47:02Z</time>
      </trkpt>
      <trkpt lat="45.99727" lon="6.4442">
        <ele>1891</ele>
        <time>2018-09-02T10:47:07Z</time>
      </trkpt>
      <trkpt lat="45.99721" lon="6.44421">
        <ele>1890</ele>
        <time>2018-09-02T10:47:12Z</time>
      </trkpt>
      <trkpt lat="45.99715" lon="6.44421">
        <ele>1891</ele>
        <time>2018-09-02T10:47:20Z</time>
      </trkpt>
      <trkpt lat="45.99711" lon="6.44417">
        <ele>1889</ele>
        <time>2018-09-02T10:47:26Z</time>
      </trkpt>
      <trkpt lat="45.99706" lon="6.44414">
        <ele>1888</ele>
        <time>2018-09-02T10:47:31Z</time>
      </trkpt>
      <trkpt lat="45.997" lon="6.44412">
        <ele>1885</ele>
        <time>2018-09-02T10:47:38Z</time>
      </trkpt>
      <trkpt lat="45.99694" lon="6.44407">
        <ele>1887</ele>
        <time>2018-09-02T10:47:45Z</time>
      </trkpt>
      <trkpt lat="45.99688" lon="6.44405">
        <ele>1886</ele>
        <time>2018-09-02T10:47:52Z</time>
      </trkpt>
      <trkpt lat="45.99681" lon="6.44405">
        <ele>1883</ele>
        <time>2018-09-02T10:48:16Z</time>
      </trkpt>
      <trkpt lat="45.99676" lon="6.44403">
        <ele>1886</ele>
        <time>2018-09-02T10:48:21Z</time>
      </trkpt>
      <trkpt lat="45.99671" lon="6.44402">
        <ele>1885</ele>
        <time>2018-09-02T10:48:26Z</time>
      </trkpt>
      <trkpt lat="45.99663" lon="6.44398">
        <ele>1883</ele>
        <time>2018-09-02T10:48:36Z</time>
      </trkpt>
      <trkpt lat="45.99656" lon="6.44391">
        <ele>1879</ele>
        <time>2018-09-02T10:48:48Z</time>
      </trkpt>
      <trkpt lat="45.9965" lon="6.44392">
        <ele>1876</ele>
        <time>2018-09-02T10:49:12Z</time>
      </trkpt>
      <trkpt lat="45.99634" lon="6.44389">
        <ele>1871</ele>
        <time>2018-09-02T10:49:33Z</time>
      </trkpt>
      <trkpt lat="45.9963" lon="6.44385">
        <ele>1870</ele>
        <time>2018-09-02T10:49:38Z</time>
      </trkpt>
      <trkpt lat="45.99625" lon="6.44383">
        <ele>1869</ele>
        <time>2018-09-02T10:49:43Z</time>
      </trkpt>
      <trkpt lat="45.99619" lon="6.44379">
        <ele>1870</ele>
        <time>2018-09-02T10:49:51Z</time>
      </trkpt>
      <trkpt lat="45.99593" lon="6.44363">
        <ele>1860</ele>
        <time>2018-09-02T10:50:22Z</time>
      </trkpt>
      <trkpt lat="45.99588" lon="6.44361">
        <ele>1860</ele>
        <time>2018-09-02T10:50:27Z</time>
      </trkpt>
      <trkpt lat="45.99583" lon="6.4436">
        <ele>1860</ele>
        <time>2018-09-02T10:50:32Z</time>
      </trkpt>
      <trkpt lat="45.99577" lon="6.44359">
        <ele>1860</ele>
        <time>2018-09-02T10:50:37Z</time>
      </trkpt>
      <trkpt lat="45.99568" lon="6.44358">
        <ele>1860</ele>
        <time>2018-09-02T10:50:46Z</time>
      </trkpt>
      <trkpt lat="45.99562" lon="6.44358">
        <ele>1858</ele>
        <time>2018-09-02T10:50:51Z</time>
      </trkpt>
      <trkpt lat="45.99557" lon="6.44357">
        <ele>1858</ele>
        <time>2018-09-02T10:50:56Z</time>
      </trkpt>
      <trkpt lat="45.99552" lon="6.44357">
        <ele>1857</ele>
        <time>2018-09-02T10:51:01Z</time>
      </trkpt>
      <trkpt lat="45.99544" lon="6.44354">
        <ele>1856</ele>
        <time>2018-09-02T10:51:12Z</time>
      </trkpt>
      <trkpt lat="45.99541" lon="6.44346">
        <ele>1853</ele>
        <time>2018-09-02T10:51:20Z</time>
      </trkpt>
      <trkpt lat="45.99537" lon="6.44342">
        <ele>1852</ele>
        <time>2018-09-02T10:51:26Z</time>
      </trkpt>
      <trkpt lat="45.99525" lon="6.4433">
        <ele>1846</ele>
        <time>2018-09-02T10:51:46Z</time>
      </trkpt>
      <trkpt lat="45.99513" lon="6.44323">
        <ele>1840</ele>
        <time>2018-09-02T10:52:04Z</time>
      </trkpt>
      <trkpt lat="45.99508" lon="6.44322">
        <ele>1840</ele>
        <time>2018-09-02T10:52:10Z</time>
      </trkpt>
      <trkpt lat="45.99501" lon="6.4432">
        <ele>1837</ele>
        <time>2018-09-02T10:52:18Z</time>
      </trkpt>
      <trkpt lat="45.99494" lon="6.4432">
        <ele>1835</ele>
        <time>2018-09-02T10:52:25Z</time>
      </trkpt>
      <trkpt lat="45.99489" lon="6.44316">
        <ele>1834</ele>
        <time>2018-09-02T10:52:32Z</time>
      </trkpt>
      <trkpt lat="45.99484" lon="6.44315">
        <ele>1832</ele>
        <time>2018-09-02T10:52:37Z</time>
      </trkpt>
      <trkpt lat="45.99479" lon="6.44316">
        <ele>1830</ele>
        <time>2018-09-02T10:52:42Z</time>
      </trkpt>
      <trkpt lat="45.99474" lon="6.44317">
        <ele>1831</ele>
        <time>2018-09-02T10:52:47Z</time>
      </trkpt>
      <trkpt lat="45.99466" lon="6.4431">
        <ele>1829</ele>
        <time>2018-09-02T10:52:57Z</time>
      </trkpt>
      <trkpt lat="45.9946" lon="6.44305">
        <ele>1825</ele>
        <time>2018-09-02T10:53:07Z</time>
      </trkpt>
      <trkpt lat="45.99455" lon="6.44306">
        <ele>1825</ele>
        <time>2018-09-02T10:53:12Z</time>
      </trkpt>
      <trkpt lat="45.9945" lon="6.44309">
        <ele>1824</ele>
        <time>2018-09-02T10:53:17Z</time>
      </trkpt>
      <trkpt lat="45.99445" lon="6.44309">
        <ele>1824</ele>
        <time>2018-09-02T10:53:22Z</time>
      </trkpt>
      <trkpt lat="45.99439" lon="6.44312">
        <ele>1823</ele>
        <time>2018-09-02T10:53:30Z</time>
      </trkpt>
      <trkpt lat="45.99435" lon="6.44314">
        <ele>1824</ele>
        <time>2018-09-02T10:53:35Z</time>
      </trkpt>
      <trkpt lat="45.99428" lon="6.44312">
        <ele>1822</ele>
        <time>2018-09-02T10:53:43Z</time>
      </trkpt>
      <trkpt lat="45.9942" lon="6.44312">
        <ele>1820</ele>
        <time>2018-09-02T10:53:54Z</time>
      </trkpt>
      <trkpt lat="45.99399" lon="6.44307">
        <ele>1819</ele>
        <time>2018-09-02T10:54:14Z</time>
      </trkpt>
      <trkpt lat="45.99394" lon="6.44306">
        <ele>1819</ele>
        <time>2018-09-02T10:54:19Z</time>
      </trkpt>
      <trkpt lat="45.99378" lon="6.44301">
        <ele>1818</ele>
        <time>2018-09-02T10:54:36Z</time>
      </trkpt>
      <trkpt lat="45.99368" lon="6.44298">
        <ele>1816</ele>
        <time>2018-09-02T10:54:46Z</time>
      </trkpt>
      <trkpt lat="45.99363" lon="6.44296">
        <ele>1816</ele>
        <time>2018-09-02T10:54:51Z</time>
      </trkpt>
      <trkpt lat="45.99358" lon="6.44294">
        <ele>1816</ele>
        <time>2018-09-02T10:54:56Z</time>
      </trkpt>
      <trkpt lat="45.99354" lon="6.44292">
        <ele>1816</ele>
        <time>2018-09-02T10:55:01Z</time>
      </trkpt>
      <trkpt lat="45.99349" lon="6.4429">
        <ele>1815</ele>
        <time>2018-09-02T10:55:06Z</time>
      </trkpt>
      <trkpt lat="45.99338" lon="6.44285">
        <ele>1815</ele>
        <time>2018-09-02T10:55:18Z</time>
      </trkpt>
      <trkpt lat="45.99324" lon="6.44276">
        <ele>1813</ele>
        <time>2018-09-02T10:55:33Z</time>
      </trkpt>
      <trkpt lat="45.99312" lon="6.44264">
        <ele>1810</ele>
        <time>2018-09-02T10:55:49Z</time>
      </trkpt>
      <trkpt lat="45.99308" lon="6.44261">
        <ele>1810</ele>
        <time>2018-09-02T10:55:54Z</time>
      </trkpt>
      <trkpt lat="45.99283" lon="6.44242">
        <ele>1802</ele>
        <time>2018-09-02T10:56:32Z</time>
      </trkpt>
      <trkpt lat="45.99272" lon="6.44235">
        <ele>1798</ele>
        <time>2018-09-02T10:56:50Z</time>
      </trkpt>
      <trkpt lat="45.99261" lon="6.44227">
        <ele>1796</ele>
        <time>2018-09-02T10:57:04Z</time>
      </trkpt>
      <trkpt lat="45.99256" lon="6.44224">
        <ele>1795</ele>
        <time>2018-09-02T10:57:10Z</time>
      </trkpt>
      <trkpt lat="45.99243" lon="6.44216">
        <ele>1791</ele>
        <time>2018-09-02T10:57:25Z</time>
      </trkpt>
      <trkpt lat="45.99236" lon="6.44217">
        <ele>1790</ele>
        <time>2018-09-02T10:57:33Z</time>
      </trkpt>
      <trkpt lat="45.99232" lon="6.44219">
        <ele>1788</ele>
        <time>2018-09-02T10:57:38Z</time>
      </trkpt>
      <trkpt lat="45.99226" lon="6.44224">
        <ele>1787</ele>
        <time>2018-09-02T10:57:45Z</time>
      </trkpt>
      <trkpt lat="45.99222" lon="6.44223">
        <ele>1787</ele>
        <time>2018-09-02T10:57:50Z</time>
      </trkpt>
      <trkpt lat="45.99211" lon="6.44212">
        <ele>1783</ele>
        <time>2018-09-02T10:58:06Z</time>
      </trkpt>
      <trkpt lat="45.99208" lon="6.44204">
        <ele>1782</ele>
        <time>2018-09-02T10:58:13Z</time>
      </trkpt>
      <trkpt lat="45.99193" lon="6.44182">
        <ele>1775</ele>
        <time>2018-09-02T10:58:35Z</time>
      </trkpt>
      <trkpt lat="45.99191" lon="6.44174">
        <ele>1773</ele>
        <time>2018-09-02T10:58:43Z</time>
      </trkpt>
      <trkpt lat="45.99189" lon="6.44167">
        <ele>1772</ele>
        <time>2018-09-02T10:58:48Z</time>
      </trkpt>
      <trkpt lat="45.99186" lon="6.44163">
        <ele>1771</ele>
        <time>2018-09-02T10:58:53Z</time>
      </trkpt>
      <trkpt lat="45.99172" lon="6.44153">
        <ele>1769</ele>
        <time>2018-09-02T10:59:06Z</time>
      </trkpt>
      <trkpt lat="45.99167" lon="6.44151">
        <ele>1768</ele>
        <time>2018-09-02T10:59:11Z</time>
      </trkpt>
      <trkpt lat="45.99162" lon="6.4415">
        <ele>1769</ele>
        <time>2018-09-02T10:59:16Z</time>
      </trkpt>
      <trkpt lat="45.99152" lon="6.44149">
        <ele>1769</ele>
        <time>2018-09-02T10:59:26Z</time>
      </trkpt>
      <trkpt lat="45.99147" lon="6.44152">
        <ele>1770</ele>
        <time>2018-09-02T10:59:31Z</time>
      </trkpt>
      <trkpt lat="45.99142" lon="6.44154">
        <ele>1769</ele>
        <time>2018-09-02T10:59:36Z</time>
      </trkpt>
      <trkpt lat="45.99137" lon="6.44153">
        <ele>1768</ele>
        <time>2018-09-02T10:59:41Z</time>
      </trkpt>
      <trkpt lat="45.99132" lon="6.44152">
        <ele>1769</ele>
        <time>2018-09-02T10:59:46Z</time>
      </trkpt>
      <trkpt lat="45.99126" lon="6.44154">
        <ele>1768</ele>
        <time>2018-09-02T10:59:51Z</time>
      </trkpt>
      <trkpt lat="45.99122" lon="6.44155">
        <ele>1769</ele>
        <time>2018-09-02T10:59:55Z</time>
      </trkpt>
      <trkpt lat="45.99117" lon="6.44155">
        <ele>1767</ele>
        <time>2018-09-02T10:59:59Z</time>
      </trkpt>
      <trkpt lat="45.99113" lon="6.44153">
        <ele>1767</ele>
        <time>2018-09-02T11:00:03Z</time>
      </trkpt>
      <trkpt lat="45.99108" lon="6.44152">
        <ele>1767</ele>
        <time>2018-09-02T11:00:07Z</time>
      </trkpt>
      <trkpt lat="45.99097" lon="6.44153">
        <ele>1767</ele>
        <time>2018-09-02T11:00:17Z</time>
      </trkpt>
      <trkpt lat="45.99093" lon="6.44151">
        <ele>1767</ele>
        <time>2018-09-02T11:00:22Z</time>
      </trkpt>
      <trkpt lat="45.99088" lon="6.44149">
        <ele>1767</ele>
        <time>2018-09-02T11:00:27Z</time>
      </trkpt>
      <trkpt lat="45.99083" lon="6.44147">
        <ele>1767</ele>
        <time>2018-09-02T11:00:32Z</time>
      </trkpt>
      <trkpt lat="45.99076" lon="6.44141">
        <ele>1765</ele>
        <time>2018-09-02T11:00:41Z</time>
      </trkpt>
      <trkpt lat="45.99069" lon="6.44138">
        <ele>1765</ele>
        <time>2018-09-02T11:00:49Z</time>
      </trkpt>
      <trkpt lat="45.99045" lon="6.44125">
        <ele>1760</ele>
        <time>2018-09-02T11:01:16Z</time>
      </trkpt>
      <trkpt lat="45.9903" lon="6.4412">
        <ele>1755</ele>
        <time>2018-09-02T11:01:36Z</time>
      </trkpt>
      <trkpt lat="45.99023" lon="6.44114">
        <ele>1753</ele>
        <time>2018-09-02T11:01:46Z</time>
      </trkpt>
      <trkpt lat="45.99018" lon="6.44112">
        <ele>1753</ele>
        <time>2018-09-02T11:01:51Z</time>
      </trkpt>
      <trkpt lat="45.99013" lon="6.44109">
        <ele>1752</ele>
        <time>2018-09-02T11:01:56Z</time>
      </trkpt>
      <trkpt lat="45.99009" lon="6.44104">
        <ele>1752</ele>
        <time>2018-09-02T11:02:01Z</time>
      </trkpt>
      <trkpt lat="45.99005" lon="6.44099">
        <ele>1751</ele>
        <time>2018-09-02T11:02:06Z</time>
      </trkpt>
      <trkpt lat="45.99001" lon="6.44094">
        <ele>1751</ele>
        <time>2018-09-02T11:02:11Z</time>
      </trkpt>
      <trkpt lat="45.98997" lon="6.4409">
        <ele>1750</ele>
        <time>2018-09-02T11:02:16Z</time>
      </trkpt>
      <trkpt lat="45.98992" lon="6.44087">
        <ele>1750</ele>
        <time>2018-09-02T11:02:20Z</time>
      </trkpt>
      <trkpt lat="45.98989" lon="6.44084">
        <ele>1749</ele>
        <time>2018-09-02T11:02:24Z</time>
      </trkpt>
      <trkpt lat="45.98985" lon="6.44078">
        <ele>1749</ele>
        <time>2018-09-02T11:02:29Z</time>
      </trkpt>
      <trkpt lat="45.98981" lon="6.44073">
        <ele>1749</ele>
        <time>2018-09-02T11:02:34Z</time>
      </trkpt>
      <trkpt lat="45.98975" lon="6.44068">
        <ele>1748</ele>
        <time>2018-09-02T11:02:41Z</time>
      </trkpt>
      <trkpt lat="45.9897" lon="6.44064">
        <ele>1749</ele>
        <time>2018-09-02T11:02:46Z</time>
      </trkpt>
      <trkpt lat="45.98961" lon="6.4406">
        <ele>1746</ele>
        <time>2018-09-02T11:02:56Z</time>
      </trkpt>
      <trkpt lat="45.98957" lon="6.44058">
        <ele>1747</ele>
        <time>2018-09-02T11:03:01Z</time>
      </trkpt>
      <trkpt lat="45.98952" lon="6.44055">
        <ele>1750</ele>
        <time>2018-09-02T11:03:08Z</time>
      </trkpt>
      <trkpt lat="45.98944" lon="6.44053">
        <ele>1748</ele>
        <time>2018-09-02T11:03:17Z</time>
      </trkpt>
      <trkpt lat="45.98938" lon="6.44051">
        <ele>1746</ele>
        <time>2018-09-02T11:03:24Z</time>
      </trkpt>
      <trkpt lat="45.98934" lon="6.44049">
        <ele>1745</ele>
        <time>2018-09-02T11:03:29Z</time>
      </trkpt>
      <trkpt lat="45.9893" lon="6.44044">
        <ele>1745</ele>
        <time>2018-09-02T11:03:34Z</time>
      </trkpt>
      <trkpt lat="45.98927" lon="6.44038">
        <ele>1744</ele>
        <time>2018-09-02T11:03:39Z</time>
      </trkpt>
      <trkpt lat="45.98917" lon="6.4405">
        <ele>1743</ele>
        <time>2018-09-02T11:03:58Z</time>
      </trkpt>
      <trkpt lat="45.98914" lon="6.44055">
        <ele>1743</ele>
        <time>2018-09-02T11:04:02Z</time>
      </trkpt>
      <trkpt lat="45.98903" lon="6.44064">
        <ele>1746</ele>
        <time>2018-09-02T11:04:17Z</time>
      </trkpt>
      <trkpt lat="45.98898" lon="6.44073">
        <ele>1746</ele>
        <time>2018-09-02T11:05:02Z</time>
      </trkpt>
      <trkpt lat="45.98894" lon="6.44074">
        <ele>1748</ele>
        <time>2018-09-02T11:05:07Z</time>
      </trkpt>
      <trkpt lat="45.98887" lon="6.44076">
        <ele>1746</ele>
        <time>2018-09-02T11:07:38Z</time>
      </trkpt>
      <trkpt lat="45.98883" lon="6.44082">
        <ele>1746</ele>
        <time>2018-09-02T11:07:43Z</time>
      </trkpt>
      <trkpt lat="45.98877" lon="6.44094">
        <ele>1744</ele>
        <time>2018-09-02T11:07:49Z</time>
      </trkpt>
      <trkpt lat="45.98873" lon="6.44099">
        <ele>1744</ele>
        <time>2018-09-02T11:07:53Z</time>
      </trkpt>
      <trkpt lat="45.98866" lon="6.44108">
        <ele>1743</ele>
        <time>2018-09-02T11:08:01Z</time>
      </trkpt>
      <trkpt lat="45.98858" lon="6.44112">
        <ele>1742</ele>
        <time>2018-09-02T11:08:10Z</time>
      </trkpt>
      <trkpt lat="45.98854" lon="6.44116">
        <ele>1741</ele>
        <time>2018-09-02T11:08:15Z</time>
      </trkpt>
      <trkpt lat="45.98849" lon="6.44117">
        <ele>1742</ele>
        <time>2018-09-02T11:08:23Z</time>
      </trkpt>
      <trkpt lat="45.98843" lon="6.44112">
        <ele>1742</ele>
        <time>2018-09-02T11:08:35Z</time>
      </trkpt>
      <trkpt lat="45.98839" lon="6.44108">
        <ele>1741</ele>
        <time>2018-09-02T11:08:40Z</time>
      </trkpt>
      <trkpt lat="45.98832" lon="6.44101">
        <ele>1738</ele>
        <time>2018-09-02T11:08:50Z</time>
      </trkpt>
      <trkpt lat="45.98831" lon="6.44095">
        <ele>1738</ele>
        <time>2018-09-02T11:09:14Z</time>
      </trkpt>
      <trkpt lat="45.9884" lon="6.44104">
        <ele>1735</ele>
        <time>2018-09-02T11:52:18Z</time>
      </trkpt>
      <trkpt lat="45.98851" lon="6.4411">
        <ele>1738</ele>
        <time>2018-09-02T11:52:42Z</time>
      </trkpt>
      <trkpt lat="45.98862" lon="6.44107">
        <ele>1738</ele>
        <time>2018-09-02T11:52:55Z</time>
      </trkpt>
      <trkpt lat="45.98872" lon="6.44099">
        <ele>1736</ele>
        <time>2018-09-02T11:53:08Z</time>
      </trkpt>
      <trkpt lat="45.98882" lon="6.44089">
        <ele>1741</ele>
        <time>2018-09-02T11:53:26Z</time>
      </trkpt>
      <trkpt lat="45.98891" lon="6.44097">
        <ele>1743</ele>
        <time>2018-09-02T11:53:50Z</time>
      </trkpt>
      <trkpt lat="45.98892" lon="6.44114">
        <ele>1744</ele>
        <time>2018-09-02T11:54:08Z</time>
      </trkpt>
      <trkpt lat="45.98884" lon="6.44128">
        <ele>1746</ele>
        <time>2018-09-02T11:54:26Z</time>
      </trkpt>
      <trkpt lat="45.98861" lon="6.44145">
        <ele>1750</ele>
        <time>2018-09-02T11:55:02Z</time>
      </trkpt>
      <trkpt lat="45.98856" lon="6.44158">
        <ele>1753</ele>
        <time>2018-09-02T11:55:22Z</time>
      </trkpt>
      <trkpt lat="45.98847" lon="6.44163">
        <ele>1756</ele>
        <time>2018-09-02T11:55:42Z</time>
      </trkpt>
      <trkpt lat="45.98838" lon="6.44176">
        <ele>1759</ele>
        <time>2018-09-02T11:56:02Z</time>
      </trkpt>
      <trkpt lat="45.98829" lon="6.44182">
        <ele>1761</ele>
        <time>2018-09-02T11:56:20Z</time>
      </trkpt>
      <trkpt lat="45.988" lon="6.44204">
        <ele>1766</ele>
        <time>2018-09-02T11:57:08Z</time>
      </trkpt>
      <trkpt lat="45.98789" lon="6.44209">
        <ele>1769</ele>
        <time>2018-09-02T11:57:26Z</time>
      </trkpt>
      <trkpt lat="45.98778" lon="6.44213">
        <ele>1772</ele>
        <time>2018-09-02T11:57:55Z</time>
      </trkpt>
      <trkpt lat="45.98768" lon="6.44217">
        <ele>1775</ele>
        <time>2018-09-02T11:58:10Z</time>
      </trkpt>
      <trkpt lat="45.98756" lon="6.44218">
        <ele>1778</ele>
        <time>2018-09-02T11:58:28Z</time>
      </trkpt>
      <trkpt lat="45.98752" lon="6.44212">
        <ele>1780</ele>
        <time>2018-09-02T11:58:47Z</time>
      </trkpt>
      <trkpt lat="45.98747" lon="6.44213">
        <ele>1783</ele>
        <time>2018-09-02T11:58:59Z</time>
      </trkpt>
      <trkpt lat="45.98738" lon="6.4421">
        <ele>1784</ele>
        <time>2018-09-02T11:59:11Z</time>
      </trkpt>
      <trkpt lat="45.98732" lon="6.44206">
        <ele>1784</ele>
        <time>2018-09-02T11:59:23Z</time>
      </trkpt>
      <trkpt lat="45.9872" lon="6.44194">
        <ele>1784</ele>
        <time>2018-09-02T11:59:45Z</time>
      </trkpt>
      <trkpt lat="45.98712" lon="6.44188">
        <ele>1783</ele>
        <time>2018-09-02T11:59:54Z</time>
      </trkpt>
      <trkpt lat="45.98698" lon="6.44188">
        <ele>1785</ele>
        <time>2018-09-02T12:00:13Z</time>
      </trkpt>
      <trkpt lat="45.98686" lon="6.44177">
        <ele>1786</ele>
        <time>2018-09-02T12:00:28Z</time>
      </trkpt>
      <trkpt lat="45.98677" lon="6.44175">
        <ele>1788</ele>
        <time>2018-09-02T12:00:43Z</time>
      </trkpt>
      <trkpt lat="45.98654" lon="6.4416">
        <ele>1794</ele>
        <time>2018-09-02T12:01:21Z</time>
      </trkpt>
      <trkpt lat="45.98648" lon="6.44147">
        <ele>1796</ele>
        <time>2018-09-02T12:01:37Z</time>
      </trkpt>
      <trkpt lat="45.98642" lon="6.44131">
        <ele>1796</ele>
        <time>2018-09-02T12:01:52Z</time>
      </trkpt>
      <trkpt lat="45.98639" lon="6.44114">
        <ele>1797</ele>
        <time>2018-09-02T12:02:11Z</time>
      </trkpt>
      <trkpt lat="45.98629" lon="6.44069">
        <ele>1806</ele>
        <time>2018-09-02T12:03:05Z</time>
      </trkpt>
      <trkpt lat="45.98623" lon="6.44055">
        <ele>1810</ele>
        <time>2018-09-02T12:03:29Z</time>
      </trkpt>
      <trkpt lat="45.98615" lon="6.44039">
        <ele>1812</ele>
        <time>2018-09-02T12:03:47Z</time>
      </trkpt>
      <trkpt lat="45.98608" lon="6.44031">
        <ele>1813</ele>
        <time>2018-09-02T12:04:53Z</time>
      </trkpt>
      <trkpt lat="45.986" lon="6.44005">
        <ele>1819</ele>
        <time>2018-09-02T12:05:35Z</time>
      </trkpt>
      <trkpt lat="45.98601" lon="6.43995">
        <ele>1820</ele>
        <time>2018-09-02T12:06:17Z</time>
      </trkpt>
      <trkpt lat="45.98582" lon="6.43961">
        <ele>1823</ele>
        <time>2018-09-02T12:06:49Z</time>
      </trkpt>
      <trkpt lat="45.98562" lon="6.43946">
        <ele>1829</ele>
        <time>2018-09-02T12:07:27Z</time>
      </trkpt>
      <trkpt lat="45.98554" lon="6.43933">
        <ele>1832</ele>
        <time>2018-09-02T12:07:47Z</time>
      </trkpt>
      <trkpt lat="45.98547" lon="6.43924">
        <ele>1836</ele>
        <time>2018-09-02T12:08:11Z</time>
      </trkpt>
      <trkpt lat="45.98535" lon="6.43919">
        <ele>1842</ele>
        <time>2018-09-02T12:08:47Z</time>
      </trkpt>
      <trkpt lat="45.98525" lon="6.43917">
        <ele>1847</ele>
        <time>2018-09-02T12:09:11Z</time>
      </trkpt>
      <trkpt lat="45.9852" lon="6.43902">
        <ele>1851</ele>
        <time>2018-09-02T12:09:35Z</time>
      </trkpt>
      <trkpt lat="45.98513" lon="6.43892">
        <ele>1851</ele>
        <time>2018-09-02T12:09:47Z</time>
      </trkpt>
      <trkpt lat="45.98509" lon="6.43885">
        <ele>1853</ele>
        <time>2018-09-02T12:09:59Z</time>
      </trkpt>
      <trkpt lat="45.98506" lon="6.4388">
        <ele>1853</ele>
        <time>2018-09-02T12:10:47Z</time>
      </trkpt>
      <trkpt lat="45.98497" lon="6.43874">
        <ele>1854</ele>
        <time>2018-09-02T12:10:59Z</time>
      </trkpt>
      <trkpt lat="45.9849" lon="6.43864">
        <ele>1854</ele>
        <time>2018-09-02T12:11:08Z</time>
      </trkpt>
      <trkpt lat="45.98479" lon="6.43859">
        <ele>1855</ele>
        <time>2018-09-02T12:11:20Z</time>
      </trkpt>
      <trkpt lat="45.9846" lon="6.43856">
        <ele>1858</ele>
        <time>2018-09-02T12:11:46Z</time>
      </trkpt>
      <trkpt lat="45.98454" lon="6.43853">
        <ele>1860</ele>
        <time>2018-09-02T12:11:58Z</time>
      </trkpt>
      <trkpt lat="45.98432" lon="6.4386">
        <ele>1866</ele>
        <time>2018-09-02T12:12:40Z</time>
      </trkpt>
      <trkpt lat="45.98431" lon="6.43875">
        <ele>1870</ele>
        <time>2018-09-02T12:13:08Z</time>
      </trkpt>
      <trkpt lat="45.98412" lon="6.43873">
        <ele>1876</ele>
        <time>2018-09-02T12:13:50Z</time>
      </trkpt>
      <trkpt lat="45.98402" lon="6.43874">
        <ele>1880</ele>
        <time>2018-09-02T12:14:14Z</time>
      </trkpt>
      <trkpt lat="45.98383" lon="6.43873">
        <ele>1887</ele>
        <time>2018-09-02T12:15:00Z</time>
      </trkpt>
      <trkpt lat="45.98387" lon="6.43889">
        <ele>1892</ele>
        <time>2018-09-02T12:15:30Z</time>
      </trkpt>
      <trkpt lat="45.98378" lon="6.43892">
        <ele>1896</ele>
        <time>2018-09-02T12:16:00Z</time>
      </trkpt>
      <trkpt lat="45.9837" lon="6.43884">
        <ele>1898</ele>
        <time>2018-09-02T12:16:49Z</time>
      </trkpt>
      <trkpt lat="45.98366" lon="6.43872">
        <ele>1901</ele>
        <time>2018-09-02T12:17:07Z</time>
      </trkpt>
      <trkpt lat="45.98353" lon="6.43856">
        <ele>1906</ele>
        <time>2018-09-02T12:17:35Z</time>
      </trkpt>
      <trkpt lat="45.9835" lon="6.43844">
        <ele>1910</ele>
        <time>2018-09-02T12:17:53Z</time>
      </trkpt>
      <trkpt lat="45.98348" lon="6.4383">
        <ele>1915</ele>
        <time>2018-09-02T12:18:11Z</time>
      </trkpt>
      <trkpt lat="45.98342" lon="6.4382">
        <ele>1920</ele>
        <time>2018-09-02T12:18:30Z</time>
      </trkpt>
      <trkpt lat="45.98335" lon="6.43806">
        <ele>1925</ele>
        <time>2018-09-02T12:18:48Z</time>
      </trkpt>
      <trkpt lat="45.98333" lon="6.43798">
        <ele>1927</ele>
        <time>2018-09-02T12:18:56Z</time>
      </trkpt>
      <trkpt lat="45.9833" lon="6.43781">
        <ele>1932</ele>
        <time>2018-09-02T12:19:15Z</time>
      </trkpt>
      <trkpt lat="45.98326" lon="6.43773">
        <ele>1934</ele>
        <time>2018-09-02T12:19:26Z</time>
      </trkpt>
      <trkpt lat="45.98318" lon="6.43749">
        <ele>1937</ele>
        <time>2018-09-02T12:19:51Z</time>
      </trkpt>
      <trkpt lat="45.98309" lon="6.43729">
        <ele>1937</ele>
        <time>2018-09-02T12:20:11Z</time>
      </trkpt>
      <trkpt lat="45.98302" lon="6.43715">
        <ele>1937</ele>
        <time>2018-09-02T12:20:29Z</time>
      </trkpt>
      <trkpt lat="45.98298" lon="6.43704">
        <ele>1937</ele>
        <time>2018-09-02T12:20:37Z</time>
      </trkpt>
      <trkpt lat="45.98284" lon="6.43655">
        <ele>1942</ele>
        <time>2018-09-02T12:21:23Z</time>
      </trkpt>
      <trkpt lat="45.98281" lon="6.43635">
        <ele>1943</ele>
        <time>2018-09-02T12:21:39Z</time>
      </trkpt>
      <trkpt lat="45.98277" lon="6.43622">
        <ele>1944</ele>
        <time>2018-09-02T12:22:09Z</time>
      </trkpt>
      <trkpt lat="45.98273" lon="6.4361">
        <ele>1944</ele>
        <time>2018-09-02T12:22:22Z</time>
      </trkpt>
      <trkpt lat="45.98266" lon="6.43576">
        <ele>1946</ele>
        <time>2018-09-02T12:22:49Z</time>
      </trkpt>
      <trkpt lat="45.9826" lon="6.43566">
        <ele>1946</ele>
        <time>2018-09-02T12:22:59Z</time>
      </trkpt>
      <trkpt lat="45.98258" lon="6.4355">
        <ele>1945</ele>
        <time>2018-09-02T12:23:13Z</time>
      </trkpt>
      <trkpt lat="45.98245" lon="6.43515">
        <ele>1944</ele>
        <time>2018-09-02T12:24:04Z</time>
      </trkpt>
      <trkpt lat="45.98242" lon="6.435">
        <ele>1946</ele>
        <time>2018-09-02T12:24:18Z</time>
      </trkpt>
      <trkpt lat="45.98237" lon="6.43486">
        <ele>1949</ele>
        <time>2018-09-02T12:24:36Z</time>
      </trkpt>
      <trkpt lat="45.98228" lon="6.43461">
        <ele>1954</ele>
        <time>2018-09-02T12:25:12Z</time>
      </trkpt>
      <trkpt lat="45.9822" lon="6.43453">
        <ele>1952</ele>
        <time>2018-09-02T12:26:30Z</time>
      </trkpt>
      <trkpt lat="45.98214" lon="6.43443">
        <ele>1951</ele>
        <time>2018-09-02T12:26:39Z</time>
      </trkpt>
      <trkpt lat="45.98209" lon="6.43428">
        <ele>1952</ele>
        <time>2018-09-02T12:26:56Z</time>
      </trkpt>
      <trkpt lat="45.98203" lon="6.43417">
        <ele>1952</ele>
        <time>2018-09-02T12:27:05Z</time>
      </trkpt>
      <trkpt lat="45.98197" lon="6.43408">
        <ele>1952</ele>
        <time>2018-09-02T12:27:15Z</time>
      </trkpt>
      <trkpt lat="45.9819" lon="6.43397">
        <ele>1952</ele>
        <time>2018-09-02T12:27:29Z</time>
      </trkpt>
      <trkpt lat="45.98183" lon="6.43388">
        <ele>1953</ele>
        <time>2018-09-02T12:27:47Z</time>
      </trkpt>
      <trkpt lat="45.98176" lon="6.43377">
        <ele>1954</ele>
        <time>2018-09-02T12:28:05Z</time>
      </trkpt>
      <trkpt lat="45.98171" lon="6.43363">
        <ele>1958</ele>
        <time>2018-09-02T12:28:35Z</time>
      </trkpt>
      <trkpt lat="45.98165" lon="6.43346">
        <ele>1962</ele>
        <time>2018-09-02T12:28:59Z</time>
      </trkpt>
      <trkpt lat="45.98156" lon="6.4334">
        <ele>1964</ele>
        <time>2018-09-02T12:29:23Z</time>
      </trkpt>
      <trkpt lat="45.9815" lon="6.43328">
        <ele>1964</ele>
        <time>2018-09-02T12:29:47Z</time>
      </trkpt>
      <trkpt lat="45.98142" lon="6.43321">
        <ele>1964</ele>
        <time>2018-09-02T12:30:05Z</time>
      </trkpt>
      <trkpt lat="45.98133" lon="6.43313">
        <ele>1963</ele>
        <time>2018-09-02T12:30:23Z</time>
      </trkpt>
      <trkpt lat="45.98124" lon="6.43306">
        <ele>1961</ele>
        <time>2018-09-02T12:30:59Z</time>
      </trkpt>
      <trkpt lat="45.98115" lon="6.43294">
        <ele>1961</ele>
        <time>2018-09-02T12:31:47Z</time>
      </trkpt>
      <trkpt lat="45.98097" lon="6.43272">
        <ele>1956</ele>
        <time>2018-09-02T12:32:26Z</time>
      </trkpt>
      <trkpt lat="45.98078" lon="6.4325">
        <ele>1956</ele>
        <time>2018-09-02T12:33:00Z</time>
      </trkpt>
      <trkpt lat="45.98068" lon="6.43247">
        <ele>1952</ele>
        <time>2018-09-02T12:33:18Z</time>
      </trkpt>
      <trkpt lat="45.98069" lon="6.43257">
        <ele>1951</ele>
        <time>2018-09-02T12:35:46Z</time>
      </trkpt>
      <trkpt lat="45.98077" lon="6.43275">
        <ele>1947</ele>
        <time>2018-09-02T12:36:18Z</time>
      </trkpt>
      <trkpt lat="45.9808" lon="6.43281">
        <ele>1944</ele>
        <time>2018-09-02T12:36:24Z</time>
      </trkpt>
      <trkpt lat="45.98081" lon="6.43289">
        <ele>1944</ele>
        <time>2018-09-02T12:36:30Z</time>
      </trkpt>
      <trkpt lat="45.98091" lon="6.43331">
        <ele>1938</ele>
        <time>2018-09-02T12:37:04Z</time>
      </trkpt>
      <trkpt lat="45.98099" lon="6.43355">
        <ele>1931</ele>
        <time>2018-09-02T12:37:36Z</time>
      </trkpt>
      <trkpt lat="45.98104" lon="6.4337">
        <ele>1928</ele>
        <time>2018-09-02T12:38:12Z</time>
      </trkpt>
      <trkpt lat="45.98113" lon="6.43384">
        <ele>1924</ele>
        <time>2018-09-02T12:38:31Z</time>
      </trkpt>
      <trkpt lat="45.98126" lon="6.43394">
        <ele>1922</ele>
        <time>2018-09-02T12:38:47Z</time>
      </trkpt>
      <trkpt lat="45.98135" lon="6.43421">
        <ele>1916</ele>
        <time>2018-09-02T12:39:31Z</time>
      </trkpt>
      <trkpt lat="45.98149" lon="6.43452">
        <ele>1910</ele>
        <time>2018-09-02T12:40:02Z</time>
      </trkpt>
      <trkpt lat="45.98155" lon="6.43473">
        <ele>1905</ele>
        <time>2018-09-02T12:40:48Z</time>
      </trkpt>
      <trkpt lat="45.98148" lon="6.43468">
        <ele>1901</ele>
        <time>2018-09-02T12:42:14Z</time>
      </trkpt>
      <trkpt lat="45.98143" lon="6.43465">
        <ele>1902</ele>
        <time>2018-09-02T12:42:18Z</time>
      </trkpt>
      <trkpt lat="45.98134" lon="6.43458">
        <ele>1903</ele>
        <time>2018-09-02T12:42:27Z</time>
      </trkpt>
      <trkpt lat="45.9813" lon="6.43455">
        <ele>1901</ele>
        <time>2018-09-02T12:42:32Z</time>
      </trkpt>
      <trkpt lat="45.98125" lon="6.43448">
        <ele>1901</ele>
        <time>2018-09-02T12:42:47Z</time>
      </trkpt>
      <trkpt lat="45.98119" lon="6.43442">
        <ele>1904</ele>
        <time>2018-09-02T12:42:59Z</time>
      </trkpt>
      <trkpt lat="45.98113" lon="6.43431">
        <ele>1903</ele>
        <time>2018-09-02T12:43:18Z</time>
      </trkpt>
      <trkpt lat="45.98106" lon="6.43428">
        <ele>1901</ele>
        <time>2018-09-02T12:43:36Z</time>
      </trkpt>
      <trkpt lat="45.98101" lon="6.43425">
        <ele>1902</ele>
        <time>2018-09-02T12:43:42Z</time>
      </trkpt>
      <trkpt lat="45.98096" lon="6.43424">
        <ele>1904</ele>
        <time>2018-09-02T12:43:49Z</time>
      </trkpt>
      <trkpt lat="45.98089" lon="6.43419">
        <ele>1904</ele>
        <time>2018-09-02T12:43:57Z</time>
      </trkpt>
      <trkpt lat="45.98083" lon="6.4341">
        <ele>1904</ele>
        <time>2018-09-02T12:44:11Z</time>
      </trkpt>
      <trkpt lat="45.98079" lon="6.43406">
        <ele>1905</ele>
        <time>2018-09-02T12:44:16Z</time>
      </trkpt>
      <trkpt lat="45.98073" lon="6.43406">
        <ele>1906</ele>
        <time>2018-09-02T12:44:24Z</time>
      </trkpt>
      <trkpt lat="45.98068" lon="6.43404">
        <ele>1907</ele>
        <time>2018-09-02T12:44:29Z</time>
      </trkpt>
      <trkpt lat="45.98059" lon="6.43396">
        <ele>1904</ele>
        <time>2018-09-02T12:44:42Z</time>
      </trkpt>
      <trkpt lat="45.98051" lon="6.43391">
        <ele>1907</ele>
        <time>2018-09-02T12:44:54Z</time>
      </trkpt>
      <trkpt lat="45.98045" lon="6.43386">
        <ele>1908</ele>
        <time>2018-09-02T12:45:03Z</time>
      </trkpt>
      <trkpt lat="45.98041" lon="6.43381">
        <ele>1908</ele>
        <time>2018-09-02T12:45:09Z</time>
      </trkpt>
      <trkpt lat="45.98038" lon="6.43375">
        <ele>1907</ele>
        <time>2018-09-02T12:45:15Z</time>
      </trkpt>
      <trkpt lat="45.98032" lon="6.43366">
        <ele>1907</ele>
        <time>2018-09-02T12:45:27Z</time>
      </trkpt>
      <trkpt lat="45.98027" lon="6.43361">
        <ele>1906</ele>
        <time>2018-09-02T12:45:33Z</time>
      </trkpt>
      <trkpt lat="45.98022" lon="6.4335">
        <ele>1907</ele>
        <time>2018-09-02T12:45:43Z</time>
      </trkpt>
      <trkpt lat="45.98017" lon="6.43342">
        <ele>1905</ele>
        <time>2018-09-02T12:45:51Z</time>
      </trkpt>
      <trkpt lat="45.98012" lon="6.43335">
        <ele>1904</ele>
        <time>2018-09-02T12:45:59Z</time>
      </trkpt>
      <trkpt lat="45.98008" lon="6.43321">
        <ele>1907</ele>
        <time>2018-09-02T12:46:13Z</time>
      </trkpt>
      <trkpt lat="45.98002" lon="6.4331">
        <ele>1906</ele>
        <time>2018-09-02T12:46:25Z</time>
      </trkpt>
      <trkpt lat="45.97999" lon="6.43305">
        <ele>1912</ele>
        <time>2018-09-02T12:46:31Z</time>
      </trkpt>
      <trkpt lat="45.97991" lon="6.43296">
        <ele>1907</ele>
        <time>2018-09-02T12:46:42Z</time>
      </trkpt>
      <trkpt lat="45.97987" lon="6.43289">
        <ele>1907</ele>
        <time>2018-09-02T12:46:49Z</time>
      </trkpt>
      <trkpt lat="45.97981" lon="6.43283">
        <ele>1908</ele>
        <time>2018-09-02T12:46:57Z</time>
      </trkpt>
      <trkpt lat="45.97978" lon="6.43278">
        <ele>1907</ele>
        <time>2018-09-02T12:47:02Z</time>
      </trkpt>
      <trkpt lat="45.97975" lon="6.43273">
        <ele>1906</ele>
        <time>2018-09-02T12:47:07Z</time>
      </trkpt>
      <trkpt lat="45.97973" lon="6.43267">
        <ele>1907</ele>
        <time>2018-09-02T12:47:12Z</time>
      </trkpt>
      <trkpt lat="45.97971" lon="6.4326">
        <ele>1906</ele>
        <time>2018-09-02T12:47:17Z</time>
      </trkpt>
      <trkpt lat="45.97966" lon="6.43251">
        <ele>1907</ele>
        <time>2018-09-02T12:47:26Z</time>
      </trkpt>
      <trkpt lat="45.97962" lon="6.43244">
        <ele>1905</ele>
        <time>2018-09-02T12:47:33Z</time>
      </trkpt>
      <trkpt lat="45.97958" lon="6.43234">
        <ele>1904</ele>
        <time>2018-09-02T12:47:42Z</time>
      </trkpt>
      <trkpt lat="45.97956" lon="6.43228">
        <ele>1907</ele>
        <time>2018-09-02T12:47:47Z</time>
      </trkpt>
      <trkpt lat="45.97953" lon="6.43223">
        <ele>1905</ele>
        <time>2018-09-02T12:47:52Z</time>
      </trkpt>
      <trkpt lat="45.97951" lon="6.43217">
        <ele>1905</ele>
        <time>2018-09-02T12:48:00Z</time>
      </trkpt>
      <trkpt lat="45.97947" lon="6.43211">
        <ele>1906</ele>
        <time>2018-09-02T12:48:06Z</time>
      </trkpt>
      <trkpt lat="45.97945" lon="6.43205">
        <ele>1905</ele>
        <time>2018-09-02T12:48:13Z</time>
      </trkpt>
      <trkpt lat="45.97938" lon="6.43194">
        <ele>1903</ele>
        <time>2018-09-02T12:48:24Z</time>
      </trkpt>
      <trkpt lat="45.97935" lon="6.43186">
        <ele>1903</ele>
        <time>2018-09-02T12:48:32Z</time>
      </trkpt>
      <trkpt lat="45.97929" lon="6.43179">
        <ele>1903</ele>
        <time>2018-09-02T12:48:42Z</time>
      </trkpt>
      <trkpt lat="45.97924" lon="6.43172">
        <ele>1905</ele>
        <time>2018-09-02T12:48:54Z</time>
      </trkpt>
      <trkpt lat="45.97917" lon="6.43167">
        <ele>1904</ele>
        <time>2018-09-02T12:49:06Z</time>
      </trkpt>
      <trkpt lat="45.97913" lon="6.43162">
        <ele>1902</ele>
        <time>2018-09-02T12:49:24Z</time>
      </trkpt>
      <trkpt lat="45.97907" lon="6.43155">
        <ele>1905</ele>
        <time>2018-09-02T12:49:36Z</time>
      </trkpt>
      <trkpt lat="45.97903" lon="6.4315">
        <ele>1904</ele>
        <time>2018-09-02T12:49:42Z</time>
      </trkpt>
      <trkpt lat="45.97899" lon="6.43147">
        <ele>1906</ele>
        <time>2018-09-02T12:49:47Z</time>
      </trkpt>
      <trkpt lat="45.9789" lon="6.43142">
        <ele>1905</ele>
        <time>2018-09-02T12:49:59Z</time>
      </trkpt>
      <trkpt lat="45.97886" lon="6.43138">
        <ele>1905</ele>
        <time>2018-09-02T12:50:04Z</time>
      </trkpt>
      <trkpt lat="45.97873" lon="6.43134">
        <ele>1898</ele>
        <time>2018-09-02T12:50:19Z</time>
      </trkpt>
      <trkpt lat="45.97867" lon="6.43133">
        <ele>1902</ele>
        <time>2018-09-02T12:50:27Z</time>
      </trkpt>
      <trkpt lat="45.97844" lon="6.43134">
        <ele>1892</ele>
        <time>2018-09-02T12:51:03Z</time>
      </trkpt>
      <trkpt lat="45.97837" lon="6.43132">
        <ele>1889</ele>
        <time>2018-09-02T12:51:15Z</time>
      </trkpt>
      <trkpt lat="45.97832" lon="6.43136">
        <ele>1890</ele>
        <time>2018-09-02T12:54:51Z</time>
      </trkpt>
      <trkpt lat="45.97826" lon="6.43145">
        <ele>1885</ele>
        <time>2018-09-02T12:55:03Z</time>
      </trkpt>
      <trkpt lat="45.97824" lon="6.43156">
        <ele>1881</ele>
        <time>2018-09-02T12:55:14Z</time>
      </trkpt>
      <trkpt lat="45.97826" lon="6.43162">
        <ele>1883</ele>
        <time>2018-09-02T12:55:19Z</time>
      </trkpt>
      <trkpt lat="45.97831" lon="6.43169">
        <ele>1878</ele>
        <time>2018-09-02T12:55:26Z</time>
      </trkpt>
      <trkpt lat="45.97835" lon="6.43172">
        <ele>1878</ele>
        <time>2018-09-02T12:55:31Z</time>
      </trkpt>
      <trkpt lat="45.97841" lon="6.4317">
        <ele>1878</ele>
        <time>2018-09-02T12:55:38Z</time>
      </trkpt>
      <trkpt lat="45.97847" lon="6.43174">
        <ele>1877</ele>
        <time>2018-09-02T12:55:48Z</time>
      </trkpt>
      <trkpt lat="45.9785" lon="6.43183">
        <ele>1875</ele>
        <time>2018-09-02T12:55:59Z</time>
      </trkpt>
      <trkpt lat="45.97845" lon="6.43187">
        <ele>1874</ele>
        <time>2018-09-02T12:56:05Z</time>
      </trkpt>
      <trkpt lat="45.97841" lon="6.43189">
        <ele>1873</ele>
        <time>2018-09-02T12:56:10Z</time>
      </trkpt>
      <trkpt lat="45.97834" lon="6.43197">
        <ele>1870</ele>
        <time>2018-09-02T12:56:20Z</time>
      </trkpt>
      <trkpt lat="45.97837" lon="6.43202">
        <ele>1868</ele>
        <time>2018-09-02T12:56:25Z</time>
      </trkpt>
      <trkpt lat="45.97847" lon="6.43206">
        <ele>1866</ele>
        <time>2018-09-02T12:56:35Z</time>
      </trkpt>
      <trkpt lat="45.97855" lon="6.43215">
        <ele>1864</ele>
        <time>2018-09-02T12:56:45Z</time>
      </trkpt>
      <trkpt lat="45.97868" lon="6.43227">
        <ele>1860</ele>
        <time>2018-09-02T12:57:00Z</time>
      </trkpt>
      <trkpt lat="45.9787" lon="6.43233">
        <ele>1860</ele>
        <time>2018-09-02T12:57:05Z</time>
      </trkpt>
      <trkpt lat="45.97871" lon="6.4324">
        <ele>1859</ele>
        <time>2018-09-02T12:57:10Z</time>
      </trkpt>
      <trkpt lat="45.97871" lon="6.43247">
        <ele>1858</ele>
        <time>2018-09-02T12:57:15Z</time>
      </trkpt>
      <trkpt lat="45.97875" lon="6.43255">
        <ele>1856</ele>
        <time>2018-09-02T12:57:22Z</time>
      </trkpt>
      <trkpt lat="45.97877" lon="6.43261">
        <ele>1856</ele>
        <time>2018-09-02T12:57:27Z</time>
      </trkpt>
      <trkpt lat="45.97881" lon="6.43275">
        <ele>1852</ele>
        <time>2018-09-02T12:57:37Z</time>
      </trkpt>
      <trkpt lat="45.97881" lon="6.43283">
        <ele>1853</ele>
        <time>2018-09-02T12:57:42Z</time>
      </trkpt>
      <trkpt lat="45.97881" lon="6.43303">
        <ele>1849</ele>
        <time>2018-09-02T12:57:55Z</time>
      </trkpt>
      <trkpt lat="45.97882" lon="6.43311">
        <ele>1849</ele>
        <time>2018-09-02T12:58:00Z</time>
      </trkpt>
      <trkpt lat="45.97884" lon="6.43318">
        <ele>1848</ele>
        <time>2018-09-02T12:58:05Z</time>
      </trkpt>
      <trkpt lat="45.97886" lon="6.43325">
        <ele>1848</ele>
        <time>2018-09-02T12:58:09Z</time>
      </trkpt>
      <trkpt lat="45.97887" lon="6.43332">
        <ele>1847</ele>
        <time>2018-09-02T12:58:13Z</time>
      </trkpt>
      <trkpt lat="45.97888" lon="6.43338">
        <ele>1847</ele>
        <time>2018-09-02T12:58:17Z</time>
      </trkpt>
      <trkpt lat="45.9789" lon="6.43345">
        <ele>1848</ele>
        <time>2018-09-02T12:58:22Z</time>
      </trkpt>
      <trkpt lat="45.979" lon="6.43372">
        <ele>1842</ele>
        <time>2018-09-02T12:58:42Z</time>
      </trkpt>
      <trkpt lat="45.97906" lon="6.4342">
        <ele>1834</ele>
        <time>2018-09-02T12:59:17Z</time>
      </trkpt>
      <trkpt lat="45.97908" lon="6.43428">
        <ele>1832</ele>
        <time>2018-09-02T12:59:22Z</time>
      </trkpt>
      <trkpt lat="45.9791" lon="6.43434">
        <ele>1831</ele>
        <time>2018-09-02T12:59:27Z</time>
      </trkpt>
      <trkpt lat="45.97912" lon="6.4344">
        <ele>1833</ele>
        <time>2018-09-02T12:59:32Z</time>
      </trkpt>
      <trkpt lat="45.97915" lon="6.43446">
        <ele>1831</ele>
        <time>2018-09-02T12:59:37Z</time>
      </trkpt>
      <trkpt lat="45.97919" lon="6.43461">
        <ele>1828</ele>
        <time>2018-09-02T12:59:49Z</time>
      </trkpt>
      <trkpt lat="45.97921" lon="6.43468">
        <ele>1827</ele>
        <time>2018-09-02T12:59:54Z</time>
      </trkpt>
      <trkpt lat="45.97924" lon="6.43476">
        <ele>1825</ele>
        <time>2018-09-02T13:00:03Z</time>
      </trkpt>
      <trkpt lat="45.97927" lon="6.43482">
        <ele>1825</ele>
        <time>2018-09-02T13:00:08Z</time>
      </trkpt>
      <trkpt lat="45.97942" lon="6.43513">
        <ele>1817</ele>
        <time>2018-09-02T13:00:46Z</time>
      </trkpt>
      <trkpt lat="45.97949" lon="6.43532">
        <ele>1812</ele>
        <time>2018-09-02T13:01:40Z</time>
      </trkpt>
      <trkpt lat="45.97948" lon="6.43538">
        <ele>1810</ele>
        <time>2018-09-02T13:01:53Z</time>
      </trkpt>
      <trkpt lat="45.97943" lon="6.43538">
        <ele>1809</ele>
        <time>2018-09-02T13:01:57Z</time>
      </trkpt>
      <trkpt lat="45.97934" lon="6.43539">
        <ele>1807</ele>
        <time>2018-09-02T13:02:06Z</time>
      </trkpt>
      <trkpt lat="45.9793" lon="6.43546">
        <ele>1806</ele>
        <time>2018-09-02T13:02:14Z</time>
      </trkpt>
      <trkpt lat="45.97929" lon="6.43553">
        <ele>1805</ele>
        <time>2018-09-02T13:02:19Z</time>
      </trkpt>
      <trkpt lat="45.97933" lon="6.43559">
        <ele>1803</ele>
        <time>2018-09-02T13:02:24Z</time>
      </trkpt>
      <trkpt lat="45.97943" lon="6.43564">
        <ele>1800</ele>
        <time>2018-09-02T13:02:41Z</time>
      </trkpt>
      <trkpt lat="45.97955" lon="6.43576">
        <ele>1797</ele>
        <time>2018-09-02T13:02:54Z</time>
      </trkpt>
      <trkpt lat="45.9796" lon="6.43578">
        <ele>1797</ele>
        <time>2018-09-02T13:02:59Z</time>
      </trkpt>
      <trkpt lat="45.97965" lon="6.43583">
        <ele>1796</ele>
        <time>2018-09-02T13:03:06Z</time>
      </trkpt>
      <trkpt lat="45.97975" lon="6.436">
        <ele>1791</ele>
        <time>2018-09-02T13:03:21Z</time>
      </trkpt>
      <trkpt lat="45.97979" lon="6.43604">
        <ele>1790</ele>
        <time>2018-09-02T13:03:25Z</time>
      </trkpt>
      <trkpt lat="45.97982" lon="6.43611">
        <ele>1784</ele>
        <time>2018-09-02T13:03:30Z</time>
      </trkpt>
      <trkpt lat="45.97986" lon="6.43615">
        <ele>1792</ele>
        <time>2018-09-02T13:03:35Z</time>
      </trkpt>
      <trkpt lat="45.9799" lon="6.43618">
        <ele>1788</ele>
        <time>2018-09-02T13:03:40Z</time>
      </trkpt>
      <trkpt lat="45.97993" lon="6.43623">
        <ele>1787</ele>
        <time>2018-09-02T13:03:44Z</time>
      </trkpt>
      <trkpt lat="45.97996" lon="6.43629">
        <ele>1787</ele>
        <time>2018-09-02T13:03:48Z</time>
      </trkpt>
      <trkpt lat="45.97999" lon="6.43635">
        <ele>1786</ele>
        <time>2018-09-02T13:03:53Z</time>
      </trkpt>
      <trkpt lat="45.97994" lon="6.43638">
        <ele>1785</ele>
        <time>2018-09-02T13:03:59Z</time>
      </trkpt>
      <trkpt lat="45.9799" lon="6.43635">
        <ele>1784</ele>
        <time>2018-09-02T13:04:02Z</time>
      </trkpt>
      <trkpt lat="45.97986" lon="6.43633">
        <ele>1783</ele>
        <time>2018-09-02T13:04:05Z</time>
      </trkpt>
      <trkpt lat="45.97981" lon="6.4363">
        <ele>1783</ele>
        <time>2018-09-02T13:04:09Z</time>
      </trkpt>
      <trkpt lat="45.97976" lon="6.43627">
        <ele>1782</ele>
        <time>2018-09-02T13:04:13Z</time>
      </trkpt>
      <trkpt lat="45.97971" lon="6.43626">
        <ele>1782</ele>
        <time>2018-09-02T13:04:18Z</time>
      </trkpt>
      <trkpt lat="45.97961" lon="6.43625">
        <ele>1780</ele>
        <time>2018-09-02T13:04:28Z</time>
      </trkpt>
      <trkpt lat="45.97956" lon="6.43629">
        <ele>1781</ele>
        <time>2018-09-02T13:04:33Z</time>
      </trkpt>
      <trkpt lat="45.97955" lon="6.4365">
        <ele>1777</ele>
        <time>2018-09-02T13:04:48Z</time>
      </trkpt>
      <trkpt lat="45.97958" lon="6.43677">
        <ele>1771</ele>
        <time>2018-09-02T13:05:05Z</time>
      </trkpt>
      <trkpt lat="45.97959" lon="6.43684">
        <ele>1776</ele>
        <time>2018-09-02T13:05:10Z</time>
      </trkpt>
      <trkpt lat="45.97958" lon="6.4369">
        <ele>1775</ele>
        <time>2018-09-02T13:05:15Z</time>
      </trkpt>
      <trkpt lat="45.97956" lon="6.43697">
        <ele>1774</ele>
        <time>2018-09-02T13:05:20Z</time>
      </trkpt>
      <trkpt lat="45.97957" lon="6.43704">
        <ele>1775</ele>
        <time>2018-09-02T13:05:25Z</time>
      </trkpt>
      <trkpt lat="45.97963" lon="6.43738">
        <ele>1770</ele>
        <time>2018-09-02T13:05:47Z</time>
      </trkpt>
      <trkpt lat="45.97966" lon="6.43744">
        <ele>1770</ele>
        <time>2018-09-02T13:05:51Z</time>
      </trkpt>
      <trkpt lat="45.97967" lon="6.43751">
        <ele>1769</ele>
        <time>2018-09-02T13:05:56Z</time>
      </trkpt>
      <trkpt lat="45.97966" lon="6.43765">
        <ele>1770</ele>
        <time>2018-09-02T13:06:06Z</time>
      </trkpt>
      <trkpt lat="45.97968" lon="6.43772">
        <ele>1769</ele>
        <time>2018-09-02T13:06:11Z</time>
      </trkpt>
      <trkpt lat="45.97973" lon="6.43784">
        <ele>1766</ele>
        <time>2018-09-02T13:06:20Z</time>
      </trkpt>
      <trkpt lat="45.97974" lon="6.43792">
        <ele>1766</ele>
        <time>2018-09-02T13:06:25Z</time>
      </trkpt>
      <trkpt lat="45.97981" lon="6.43811">
        <ele>1762</ele>
        <time>2018-09-02T13:06:39Z</time>
      </trkpt>
      <trkpt lat="45.97986" lon="6.43815">
        <ele>1760</ele>
        <time>2018-09-02T13:06:44Z</time>
      </trkpt>
      <trkpt lat="45.97992" lon="6.43819">
        <ele>1759</ele>
        <time>2018-09-02T13:06:51Z</time>
      </trkpt>
      <trkpt lat="45.97994" lon="6.43825">
        <ele>1759</ele>
        <time>2018-09-02T13:06:56Z</time>
      </trkpt>
      <trkpt lat="45.97992" lon="6.43834">
        <ele>1756</ele>
        <time>2018-09-02T13:07:04Z</time>
      </trkpt>
      <trkpt lat="45.97988" lon="6.43838">
        <ele>1755</ele>
        <time>2018-09-02T13:07:09Z</time>
      </trkpt>
      <trkpt lat="45.97974" lon="6.4385">
        <ele>1750</ele>
        <time>2018-09-02T13:07:28Z</time>
      </trkpt>
      <trkpt lat="45.97967" lon="6.43857">
        <ele>1748</ele>
        <time>2018-09-02T13:07:38Z</time>
      </trkpt>
      <trkpt lat="45.97968" lon="6.43864">
        <ele>1746</ele>
        <time>2018-09-02T13:07:43Z</time>
      </trkpt>
      <trkpt lat="45.97973" lon="6.43866">
        <ele>1746</ele>
        <time>2018-09-02T13:07:48Z</time>
      </trkpt>
      <trkpt lat="45.97979" lon="6.43868">
        <ele>1746</ele>
        <time>2018-09-02T13:07:55Z</time>
      </trkpt>
      <trkpt lat="45.97984" lon="6.43873">
        <ele>1744</ele>
        <time>2018-09-02T13:08:00Z</time>
      </trkpt>
      <trkpt lat="45.97986" lon="6.43879">
        <ele>1743</ele>
        <time>2018-09-02T13:08:05Z</time>
      </trkpt>
      <trkpt lat="45.97983" lon="6.43888">
        <ele>1741</ele>
        <time>2018-09-02T13:08:13Z</time>
      </trkpt>
      <trkpt lat="45.97971" lon="6.43893">
        <ele>1737</ele>
        <time>2018-09-02T13:08:27Z</time>
      </trkpt>
      <trkpt lat="45.97965" lon="6.43893">
        <ele>1736</ele>
        <time>2018-09-02T13:08:32Z</time>
      </trkpt>
      <trkpt lat="45.9796" lon="6.43894">
        <ele>1736</ele>
        <time>2018-09-02T13:08:37Z</time>
      </trkpt>
      <trkpt lat="45.97939" lon="6.43895">
        <ele>1732</ele>
        <time>2018-09-02T13:08:56Z</time>
      </trkpt>
      <trkpt lat="45.97934" lon="6.43897">
        <ele>1731</ele>
        <time>2018-09-02T13:09:01Z</time>
      </trkpt>
      <trkpt lat="45.9793" lon="6.439">
        <ele>1731</ele>
        <time>2018-09-02T13:09:06Z</time>
      </trkpt>
      <trkpt lat="45.97921" lon="6.43912">
        <ele>1729</ele>
        <time>2018-09-02T13:09:19Z</time>
      </trkpt>
      <trkpt lat="45.9792" lon="6.43919">
        <ele>1728</ele>
        <time>2018-09-02T13:09:24Z</time>
      </trkpt>
      <trkpt lat="45.97921" lon="6.43925">
        <ele>1726</ele>
        <time>2018-09-02T13:09:28Z</time>
      </trkpt>
      <trkpt lat="45.97924" lon="6.43931">
        <ele>1726</ele>
        <time>2018-09-02T13:09:33Z</time>
      </trkpt>
      <trkpt lat="45.97926" lon="6.43937">
        <ele>1724</ele>
        <time>2018-09-02T13:09:38Z</time>
      </trkpt>
      <trkpt lat="45.97924" lon="6.43944">
        <ele>1722</ele>
        <time>2018-09-02T13:09:50Z</time>
      </trkpt>
      <trkpt lat="45.9792" lon="6.43952">
        <ele>1720</ele>
        <time>2018-09-02T13:09:58Z</time>
      </trkpt>
      <trkpt lat="45.97924" lon="6.43956">
        <ele>1718</ele>
        <time>2018-09-02T13:10:04Z</time>
      </trkpt>
      <trkpt lat="45.97936" lon="6.43967">
        <ele>1716</ele>
        <time>2018-09-02T13:10:18Z</time>
      </trkpt>
      <trkpt lat="45.97942" lon="6.43975">
        <ele>1712</ele>
        <time>2018-09-02T13:10:28Z</time>
      </trkpt>
      <trkpt lat="45.97943" lon="6.43981">
        <ele>1711</ele>
        <time>2018-09-02T13:10:34Z</time>
      </trkpt>
      <trkpt lat="45.97943" lon="6.43988">
        <ele>1710</ele>
        <time>2018-09-02T13:10:40Z</time>
      </trkpt>
      <trkpt lat="45.97937" lon="6.43992">
        <ele>1708</ele>
        <time>2018-09-02T13:10:51Z</time>
      </trkpt>
      <trkpt lat="45.97934" lon="6.43997">
        <ele>1704</ele>
        <time>2018-09-02T13:11:03Z</time>
      </trkpt>
      <trkpt lat="45.97935" lon="6.44004">
        <ele>1703</ele>
        <time>2018-09-02T13:11:08Z</time>
      </trkpt>
      <trkpt lat="45.97928" lon="6.44006">
        <ele>1703</ele>
        <time>2018-09-02T13:11:15Z</time>
      </trkpt>
      <trkpt lat="45.97924" lon="6.44009">
        <ele>1701</ele>
        <time>2018-09-02T13:11:20Z</time>
      </trkpt>
      <trkpt lat="45.97928" lon="6.44016">
        <ele>1700</ele>
        <time>2018-09-02T13:11:34Z</time>
      </trkpt>
      <trkpt lat="45.97931" lon="6.44022">
        <ele>1701</ele>
        <time>2018-09-02T13:11:39Z</time>
      </trkpt>
      <trkpt lat="45.97939" lon="6.44031">
        <ele>1697</ele>
        <time>2018-09-02T13:11:49Z</time>
      </trkpt>
      <trkpt lat="45.97944" lon="6.44034">
        <ele>1697</ele>
        <time>2018-09-02T13:11:54Z</time>
      </trkpt>
      <trkpt lat="45.97949" lon="6.44037">
        <ele>1697</ele>
        <time>2018-09-02T13:11:59Z</time>
      </trkpt>
      <trkpt lat="45.97963" lon="6.4405">
        <ele>1692</ele>
        <time>2018-09-02T13:12:17Z</time>
      </trkpt>
      <trkpt lat="45.97964" lon="6.44057">
        <ele>1692</ele>
        <time>2018-09-02T13:12:22Z</time>
      </trkpt>
      <trkpt lat="45.97963" lon="6.44068">
        <ele>1689</ele>
        <time>2018-09-02T13:12:31Z</time>
      </trkpt>
      <trkpt lat="45.97963" lon="6.44074">
        <ele>1688</ele>
        <time>2018-09-02T13:12:36Z</time>
      </trkpt>
      <trkpt lat="45.97964" lon="6.44081">
        <ele>1687</ele>
        <time>2018-09-02T13:12:41Z</time>
      </trkpt>
      <trkpt lat="45.97967" lon="6.44087">
        <ele>1688</ele>
        <time>2018-09-02T13:12:46Z</time>
      </trkpt>
      <trkpt lat="45.97969" lon="6.44093">
        <ele>1686</ele>
        <time>2018-09-02T13:12:54Z</time>
      </trkpt>
      <trkpt lat="45.97965" lon="6.44103">
        <ele>1683</ele>
        <time>2018-09-02T13:13:06Z</time>
      </trkpt>
      <trkpt lat="45.9796" lon="6.44105">
        <ele>1682</ele>
        <time>2018-09-02T13:13:12Z</time>
      </trkpt>
      <trkpt lat="45.97955" lon="6.44105">
        <ele>1681</ele>
        <time>2018-09-02T13:13:17Z</time>
      </trkpt>
      <trkpt lat="45.97949" lon="6.44102">
        <ele>1680</ele>
        <time>2018-09-02T13:13:25Z</time>
      </trkpt>
      <trkpt lat="45.97944" lon="6.44098">
        <ele>1680</ele>
        <time>2018-09-02T13:13:30Z</time>
      </trkpt>
      <trkpt lat="45.9794" lon="6.44095">
        <ele>1678</ele>
        <time>2018-09-02T13:13:35Z</time>
      </trkpt>
      <trkpt lat="45.97931" lon="6.44094">
        <ele>1676</ele>
        <time>2018-09-02T13:13:45Z</time>
      </trkpt>
      <trkpt lat="45.97928" lon="6.44099">
        <ele>1675</ele>
        <time>2018-09-02T13:13:51Z</time>
      </trkpt>
      <trkpt lat="45.97927" lon="6.44106">
        <ele>1673</ele>
        <time>2018-09-02T13:13:57Z</time>
      </trkpt>
      <trkpt lat="45.97922" lon="6.44113">
        <ele>1671</ele>
        <time>2018-09-02T13:14:09Z</time>
      </trkpt>
      <trkpt lat="45.97919" lon="6.44125">
        <ele>1668</ele>
        <time>2018-09-02T13:14:21Z</time>
      </trkpt>
      <trkpt lat="45.97915" lon="6.44135">
        <ele>1665</ele>
        <time>2018-09-02T13:14:33Z</time>
      </trkpt>
      <trkpt lat="45.97912" lon="6.44148">
        <ele>1661</ele>
        <time>2018-09-02T13:14:45Z</time>
      </trkpt>
      <trkpt lat="45.97914" lon="6.44155">
        <ele>1661</ele>
        <time>2018-09-02T13:14:51Z</time>
      </trkpt>
      <trkpt lat="45.97917" lon="6.44161">
        <ele>1662</ele>
        <time>2018-09-02T13:14:57Z</time>
      </trkpt>
      <trkpt lat="45.97922" lon="6.44167">
        <ele>1658</ele>
        <time>2018-09-02T13:15:27Z</time>
      </trkpt>
      <trkpt lat="45.97926" lon="6.44171">
        <ele>1658</ele>
        <time>2018-09-02T13:15:31Z</time>
      </trkpt>
      <trkpt lat="45.97931" lon="6.44173">
        <ele>1657</ele>
        <time>2018-09-02T13:15:36Z</time>
      </trkpt>
      <trkpt lat="45.97942" lon="6.44172">
        <ele>1656</ele>
        <time>2018-09-02T13:15:45Z</time>
      </trkpt>
      <trkpt lat="45.97947" lon="6.44169">
        <ele>1655</ele>
        <time>2018-09-02T13:15:50Z</time>
      </trkpt>
      <trkpt lat="45.97951" lon="6.44166">
        <ele>1656</ele>
        <time>2018-09-02T13:15:55Z</time>
      </trkpt>
      <trkpt lat="45.97956" lon="6.44166">
        <ele>1655</ele>
        <time>2018-09-02T13:16:00Z</time>
      </trkpt>
      <trkpt lat="45.97961" lon="6.44165">
        <ele>1655</ele>
        <time>2018-09-02T13:16:05Z</time>
      </trkpt>
      <trkpt lat="45.97966" lon="6.44166">
        <ele>1654</ele>
        <time>2018-09-02T13:16:09Z</time>
      </trkpt>
      <trkpt lat="45.97988" lon="6.44183">
        <ele>1650</ele>
        <time>2018-09-02T13:16:31Z</time>
      </trkpt>
      <trkpt lat="45.97992" lon="6.44186">
        <ele>1650</ele>
        <time>2018-09-02T13:16:35Z</time>
      </trkpt>
      <trkpt lat="45.97996" lon="6.44182">
        <ele>1650</ele>
        <time>2018-09-02T13:16:40Z</time>
      </trkpt>
      <trkpt lat="45.97999" lon="6.44177">
        <ele>1651</ele>
        <time>2018-09-02T13:16:44Z</time>
      </trkpt>
      <trkpt lat="45.98004" lon="6.44174">
        <ele>1650</ele>
        <time>2018-09-02T13:16:49Z</time>
      </trkpt>
      <trkpt lat="45.98008" lon="6.44171">
        <ele>1650</ele>
        <time>2018-09-02T13:16:54Z</time>
      </trkpt>
      <trkpt lat="45.98013" lon="6.44172">
        <ele>1648</ele>
        <time>2018-09-02T13:16:58Z</time>
      </trkpt>
      <trkpt lat="45.98016" lon="6.44177">
        <ele>1648</ele>
        <time>2018-09-02T13:17:02Z</time>
      </trkpt>
      <trkpt lat="45.98019" lon="6.44182">
        <ele>1648</ele>
        <time>2018-09-02T13:17:06Z</time>
      </trkpt>
      <trkpt lat="45.98023" lon="6.44188">
        <ele>1647</ele>
        <time>2018-09-02T13:17:11Z</time>
      </trkpt>
      <trkpt lat="45.98027" lon="6.44191">
        <ele>1645</ele>
        <time>2018-09-02T13:17:16Z</time>
      </trkpt>
      <trkpt lat="45.98048" lon="6.44198">
        <ele>1641</ele>
        <time>2018-09-02T13:17:36Z</time>
      </trkpt>
      <trkpt lat="45.98052" lon="6.44212">
        <ele>1639</ele>
        <time>2018-09-02T13:17:46Z</time>
      </trkpt>
      <trkpt lat="45.9806" lon="6.44219">
        <ele>1637</ele>
        <time>2018-09-02T13:17:54Z</time>
      </trkpt>
      <trkpt lat="45.98071" lon="6.44224">
        <ele>1635</ele>
        <time>2018-09-02T13:18:04Z</time>
      </trkpt>
      <trkpt lat="45.98076" lon="6.44227">
        <ele>1635</ele>
        <time>2018-09-02T13:18:09Z</time>
      </trkpt>
      <trkpt lat="45.98079" lon="6.44233">
        <ele>1634</ele>
        <time>2018-09-02T13:18:14Z</time>
      </trkpt>
      <trkpt lat="45.98083" lon="6.44248">
        <ele>1631</ele>
        <time>2018-09-02T13:18:26Z</time>
      </trkpt>
      <trkpt lat="45.98082" lon="6.44257">
        <ele>1629</ele>
        <time>2018-09-02T13:18:34Z</time>
      </trkpt>
      <trkpt lat="45.9808" lon="6.44271">
        <ele>1627</ele>
        <time>2018-09-02T13:18:45Z</time>
      </trkpt>
      <trkpt lat="45.98076" lon="6.44278">
        <ele>1624</ele>
        <time>2018-09-02T13:18:53Z</time>
      </trkpt>
      <trkpt lat="45.98076" lon="6.44295">
        <ele>1621</ele>
        <time>2018-09-02T13:19:06Z</time>
      </trkpt>
      <trkpt lat="45.98075" lon="6.44309">
        <ele>1619</ele>
        <time>2018-09-02T13:19:16Z</time>
      </trkpt>
      <trkpt lat="45.98072" lon="6.44322">
        <ele>1616</ele>
        <time>2018-09-02T13:19:26Z</time>
      </trkpt>
      <trkpt lat="45.98069" lon="6.44367">
        <ele>1608</ele>
        <time>2018-09-02T13:19:59Z</time>
      </trkpt>
      <trkpt lat="45.98069" lon="6.44387">
        <ele>1604</ele>
        <time>2018-09-02T13:20:14Z</time>
      </trkpt>
      <trkpt lat="45.98071" lon="6.444">
        <ele>1602</ele>
        <time>2018-09-02T13:20:24Z</time>
      </trkpt>
      <trkpt lat="45.98071" lon="6.44416">
        <ele>1598</ele>
        <time>2018-09-02T13:20:37Z</time>
      </trkpt>
      <trkpt lat="45.98068" lon="6.44422">
        <ele>1597</ele>
        <time>2018-09-02T13:20:42Z</time>
      </trkpt>
      <trkpt lat="45.98075" lon="6.44435">
        <ele>1594</ele>
        <time>2018-09-02T13:20:52Z</time>
      </trkpt>
      <trkpt lat="45.98076" lon="6.44442">
        <ele>1593</ele>
        <time>2018-09-02T13:20:56Z</time>
      </trkpt>
      <trkpt lat="45.98075" lon="6.44455">
        <ele>1593</ele>
        <time>2018-09-02T13:21:05Z</time>
      </trkpt>
      <trkpt lat="45.98071" lon="6.44465">
        <ele>1592</ele>
        <time>2018-09-02T13:21:13Z</time>
      </trkpt>
      <trkpt lat="45.98066" lon="6.44477">
        <ele>1589</ele>
        <time>2018-09-02T13:21:23Z</time>
      </trkpt>
      <trkpt lat="45.98057" lon="6.4451">
        <ele>1582</ele>
        <time>2018-09-02T13:21:51Z</time>
      </trkpt>
      <trkpt lat="45.98053" lon="6.44515">
        <ele>1583</ele>
        <time>2018-09-02T13:22:09Z</time>
      </trkpt>
      <trkpt lat="45.98056" lon="6.44521">
        <ele>1579</ele>
        <time>2018-09-02T13:22:15Z</time>
      </trkpt>
      <trkpt lat="45.9806" lon="6.44526">
        <ele>1579</ele>
        <time>2018-09-02T13:22:19Z</time>
      </trkpt>
      <trkpt lat="45.98058" lon="6.44527">
        <ele>1584</ele>
        <time>2018-09-02T13:23:32Z</time>
      </trkpt>
      <trkpt lat="45.98056" lon="6.44533">
        <ele>1579</ele>
        <time>2018-09-02T13:23:50Z</time>
      </trkpt>
      <trkpt lat="45.9806" lon="6.4454">
        <ele>1576</ele>
        <time>2018-09-02T13:24:12Z</time>
      </trkpt>
      <trkpt lat="45.98062" lon="6.44548">
        <ele>1576</ele>
        <time>2018-09-02T13:24:17Z</time>
      </trkpt>
      <trkpt lat="45.98065" lon="6.44554">
        <ele>1577</ele>
        <time>2018-09-02T13:24:22Z</time>
      </trkpt>
      <trkpt lat="45.98066" lon="6.44562">
        <ele>1576</ele>
        <time>2018-09-02T13:24:27Z</time>
      </trkpt>
      <trkpt lat="45.98073" lon="6.4458">
        <ele>1573</ele>
        <time>2018-09-02T13:24:41Z</time>
      </trkpt>
      <trkpt lat="45.98075" lon="6.44587">
        <ele>1574</ele>
        <time>2018-09-02T13:24:46Z</time>
      </trkpt>
      <trkpt lat="45.98078" lon="6.44593">
        <ele>1573</ele>
        <time>2018-09-02T13:24:50Z</time>
      </trkpt>
      <trkpt lat="45.98081" lon="6.44599">
        <ele>1572</ele>
        <time>2018-09-02T13:24:55Z</time>
      </trkpt>
      <trkpt lat="45.98081" lon="6.44607">
        <ele>1571</ele>
        <time>2018-09-02T13:25:00Z</time>
      </trkpt>
      <trkpt lat="45.98079" lon="6.44614">
        <ele>1571</ele>
        <time>2018-09-02T13:25:05Z</time>
      </trkpt>
      <trkpt lat="45.98075" lon="6.44626">
        <ele>1570</ele>
        <time>2018-09-02T13:25:15Z</time>
      </trkpt>
      <trkpt lat="45.98074" lon="6.44634">
        <ele>1570</ele>
        <time>2018-09-02T13:25:20Z</time>
      </trkpt>
      <trkpt lat="45.98074" lon="6.44641">
        <ele>1571</ele>
        <time>2018-09-02T13:25:25Z</time>
      </trkpt>
      <trkpt lat="45.98075" lon="6.44648">
        <ele>1570</ele>
        <time>2018-09-02T13:25:30Z</time>
      </trkpt>
      <trkpt lat="45.98076" lon="6.44655">
        <ele>1570</ele>
        <time>2018-09-02T13:25:35Z</time>
      </trkpt>
      <trkpt lat="45.98077" lon="6.44666">
        <ele>1569</ele>
        <time>2018-09-02T13:25:43Z</time>
      </trkpt>
      <trkpt lat="45.98078" lon="6.44673">
        <ele>1569</ele>
        <time>2018-09-02T13:25:48Z</time>
      </trkpt>
      <trkpt lat="45.98078" lon="6.4468">
        <ele>1569</ele>
        <time>2018-09-02T13:25:53Z</time>
      </trkpt>
      <trkpt lat="45.98079" lon="6.4469">
        <ele>1573</ele>
        <time>2018-09-02T13:26:00Z</time>
      </trkpt>
      <trkpt lat="45.9808" lon="6.44696">
        <ele>1572</ele>
        <time>2018-09-02T13:26:05Z</time>
      </trkpt>
      <trkpt lat="45.98079" lon="6.44703">
        <ele>1571</ele>
        <time>2018-09-02T13:26:10Z</time>
      </trkpt>
      <trkpt lat="45.98077" lon="6.44713">
        <ele>1569</ele>
        <time>2018-09-02T13:26:17Z</time>
      </trkpt>
      <trkpt lat="45.98075" lon="6.44719">
        <ele>1570</ele>
        <time>2018-09-02T13:26:22Z</time>
      </trkpt>
      <trkpt lat="45.98072" lon="6.44726">
        <ele>1568</ele>
        <time>2018-09-02T13:26:27Z</time>
      </trkpt>
      <trkpt lat="45.98073" lon="6.44733">
        <ele>1571</ele>
        <time>2018-09-02T13:26:32Z</time>
      </trkpt>
      <trkpt lat="45.98076" lon="6.44747">
        <ele>1568</ele>
        <time>2018-09-02T13:26:41Z</time>
      </trkpt>
      <trkpt lat="45.98079" lon="6.44752">
        <ele>1568</ele>
        <time>2018-09-02T13:26:45Z</time>
      </trkpt>
      <trkpt lat="45.98081" lon="6.4476">
        <ele>1567</ele>
        <time>2018-09-02T13:26:50Z</time>
      </trkpt>
      <trkpt lat="45.98085" lon="6.44774">
        <ele>1565</ele>
        <time>2018-09-02T13:26:59Z</time>
      </trkpt>
      <trkpt lat="45.98087" lon="6.44779">
        <ele>1565</ele>
        <time>2018-09-02T13:27:03Z</time>
      </trkpt>
      <trkpt lat="45.9809" lon="6.44785">
        <ele>1565</ele>
        <time>2018-09-02T13:27:07Z</time>
      </trkpt>
      <trkpt lat="45.98092" lon="6.44791">
        <ele>1564</ele>
        <time>2018-09-02T13:27:11Z</time>
      </trkpt>
      <trkpt lat="45.981" lon="6.44801">
        <ele>1563</ele>
        <time>2018-09-02T13:27:20Z</time>
      </trkpt>
      <trkpt lat="45.98102" lon="6.44809">
        <ele>1563</ele>
        <time>2018-09-02T13:27:25Z</time>
      </trkpt>
      <trkpt lat="45.98104" lon="6.44815">
        <ele>1563</ele>
        <time>2018-09-02T13:27:29Z</time>
      </trkpt>
      <trkpt lat="45.98107" lon="6.44822">
        <ele>1562</ele>
        <time>2018-09-02T13:27:34Z</time>
      </trkpt>
      <trkpt lat="45.98111" lon="6.44826">
        <ele>1563</ele>
        <time>2018-09-02T13:27:39Z</time>
      </trkpt>
      <trkpt lat="45.98114" lon="6.44833">
        <ele>1562</ele>
        <time>2018-09-02T13:27:44Z</time>
      </trkpt>
      <trkpt lat="45.98117" lon="6.44839">
        <ele>1563</ele>
        <time>2018-09-02T13:27:49Z</time>
      </trkpt>
      <trkpt lat="45.98123" lon="6.44851">
        <ele>1561</ele>
        <time>2018-09-02T13:27:59Z</time>
      </trkpt>
      <trkpt lat="45.98123" lon="6.44859">
        <ele>1559</ele>
        <time>2018-09-02T13:28:04Z</time>
      </trkpt>
      <trkpt lat="45.98123" lon="6.44867">
        <ele>1561</ele>
        <time>2018-09-02T13:28:09Z</time>
      </trkpt>
      <trkpt lat="45.98124" lon="6.44874">
        <ele>1559</ele>
        <time>2018-09-02T13:28:14Z</time>
      </trkpt>
      <trkpt lat="45.98125" lon="6.44881">
        <ele>1558</ele>
        <time>2018-09-02T13:28:19Z</time>
      </trkpt>
      <trkpt lat="45.98128" lon="6.44889">
        <ele>1558</ele>
        <time>2018-09-02T13:28:25Z</time>
      </trkpt>
      <trkpt lat="45.98133" lon="6.44893">
        <ele>1556</ele>
        <time>2018-09-02T13:28:30Z</time>
      </trkpt>
      <trkpt lat="45.98135" lon="6.449">
        <ele>1559</ele>
        <time>2018-09-02T13:28:35Z</time>
      </trkpt>
      <trkpt lat="45.98141" lon="6.44911">
        <ele>1558</ele>
        <time>2018-09-02T13:28:44Z</time>
      </trkpt>
      <trkpt lat="45.98145" lon="6.44917">
        <ele>1556</ele>
        <time>2018-09-02T13:28:48Z</time>
      </trkpt>
      <trkpt lat="45.98151" lon="6.44927">
        <ele>1555</ele>
        <time>2018-09-02T13:28:56Z</time>
      </trkpt>
      <trkpt lat="45.98151" lon="6.44941">
        <ele>1554</ele>
        <time>2018-09-02T13:29:04Z</time>
      </trkpt>
      <trkpt lat="45.98152" lon="6.44948">
        <ele>1554</ele>
        <time>2018-09-02T13:29:09Z</time>
      </trkpt>
      <trkpt lat="45.98155" lon="6.44955">
        <ele>1555</ele>
        <time>2018-09-02T13:29:14Z</time>
      </trkpt>
      <trkpt lat="45.98155" lon="6.44962">
        <ele>1555</ele>
        <time>2018-09-02T13:29:19Z</time>
      </trkpt>
      <trkpt lat="45.98156" lon="6.44969">
        <ele>1553</ele>
        <time>2018-09-02T13:29:24Z</time>
      </trkpt>
      <trkpt lat="45.98158" lon="6.44975">
        <ele>1554</ele>
        <time>2018-09-02T13:29:31Z</time>
      </trkpt>
      <trkpt lat="45.98157" lon="6.44989">
        <ele>1552</ele>
        <time>2018-09-02T13:29:41Z</time>
      </trkpt>
      <trkpt lat="45.98159" lon="6.44995">
        <ele>1550</ele>
        <time>2018-09-02T13:29:46Z</time>
      </trkpt>
      <trkpt lat="45.98165" lon="6.45015">
        <ele>1547</ele>
        <time>2018-09-02T13:30:01Z</time>
      </trkpt>
      <trkpt lat="45.98167" lon="6.45022">
        <ele>1547</ele>
        <time>2018-09-02T13:30:06Z</time>
      </trkpt>
      <trkpt lat="45.98169" lon="6.45028">
        <ele>1545</ele>
        <time>2018-09-02T13:30:10Z</time>
      </trkpt>
      <trkpt lat="45.98174" lon="6.45042">
        <ele>1545</ele>
        <time>2018-09-02T13:30:20Z</time>
      </trkpt>
      <trkpt lat="45.98176" lon="6.45049">
        <ele>1544</ele>
        <time>2018-09-02T13:30:25Z</time>
      </trkpt>
      <trkpt lat="45.9818" lon="6.45064">
        <ele>1543</ele>
        <time>2018-09-02T13:30:35Z</time>
      </trkpt>
      <trkpt lat="45.98184" lon="6.45074">
        <ele>1543</ele>
        <time>2018-09-02T13:30:43Z</time>
      </trkpt>
      <trkpt lat="45.98187" lon="6.45079">
        <ele>1543</ele>
        <time>2018-09-02T13:30:47Z</time>
      </trkpt>
      <trkpt lat="45.9819" lon="6.45085">
        <ele>1543</ele>
        <time>2018-09-02T13:30:52Z</time>
      </trkpt>
      <trkpt lat="45.98193" lon="6.4509">
        <ele>1543</ele>
        <time>2018-09-02T13:30:57Z</time>
      </trkpt>
      <trkpt lat="45.98195" lon="6.451">
        <ele>1543</ele>
        <time>2018-09-02T13:31:05Z</time>
      </trkpt>
      <trkpt lat="45.98194" lon="6.45108">
        <ele>1541</ele>
        <time>2018-09-02T13:31:13Z</time>
      </trkpt>
      <trkpt lat="45.98199" lon="6.45117">
        <ele>1538</ele>
        <time>2018-09-02T13:31:23Z</time>
      </trkpt>
      <trkpt lat="45.982" lon="6.45124">
        <ele>1537</ele>
        <time>2018-09-02T13:31:28Z</time>
      </trkpt>
      <trkpt lat="45.98201" lon="6.45131">
        <ele>1537</ele>
        <time>2018-09-02T13:31:33Z</time>
      </trkpt>
      <trkpt lat="45.98201" lon="6.45138">
        <ele>1539</ele>
        <time>2018-09-02T13:31:43Z</time>
      </trkpt>
      <trkpt lat="45.98202" lon="6.45145">
        <ele>1536</ele>
        <time>2018-09-02T13:31:48Z</time>
      </trkpt>
      <trkpt lat="45.98205" lon="6.4515">
        <ele>1536</ele>
        <time>2018-09-02T13:31:52Z</time>
      </trkpt>
      <trkpt lat="45.98209" lon="6.45155">
        <ele>1534</ele>
        <time>2018-09-02T13:31:57Z</time>
      </trkpt>
      <trkpt lat="45.98212" lon="6.4516">
        <ele>1537</ele>
        <time>2018-09-02T13:32:01Z</time>
      </trkpt>
      <trkpt lat="45.98216" lon="6.45166">
        <ele>1535</ele>
        <time>2018-09-02T13:32:06Z</time>
      </trkpt>
      <trkpt lat="45.98221" lon="6.45172">
        <ele>1537</ele>
        <time>2018-09-02T13:32:14Z</time>
      </trkpt>
      <trkpt lat="45.98224" lon="6.45178">
        <ele>1537</ele>
        <time>2018-09-02T13:32:20Z</time>
      </trkpt>
      <trkpt lat="45.98227" lon="6.45184">
        <ele>1536</ele>
        <time>2018-09-02T13:32:25Z</time>
      </trkpt>
      <trkpt lat="45.9823" lon="6.4519">
        <ele>1536</ele>
        <time>2018-09-02T13:32:30Z</time>
      </trkpt>
      <trkpt lat="45.98234" lon="6.45193">
        <ele>1536</ele>
        <time>2018-09-02T13:32:34Z</time>
      </trkpt>
      <trkpt lat="45.98236" lon="6.45202">
        <ele>1535</ele>
        <time>2018-09-02T13:32:42Z</time>
      </trkpt>
      <trkpt lat="45.98241" lon="6.45213">
        <ele>1537</ele>
        <time>2018-09-02T13:32:52Z</time>
      </trkpt>
      <trkpt lat="45.98244" lon="6.45221">
        <ele>1538</ele>
        <time>2018-09-02T13:32:59Z</time>
      </trkpt>
      <trkpt lat="45.98245" lon="6.45228">
        <ele>1538</ele>
        <time>2018-09-02T13:33:04Z</time>
      </trkpt>
      <trkpt lat="45.98249" lon="6.45239">
        <ele>1537</ele>
        <time>2018-09-02T13:33:14Z</time>
      </trkpt>
      <trkpt lat="45.98251" lon="6.45246">
        <ele>1536</ele>
        <time>2018-09-02T13:33:20Z</time>
      </trkpt>
      <trkpt lat="45.98253" lon="6.45253">
        <ele>1537</ele>
        <time>2018-09-02T13:33:25Z</time>
      </trkpt>
      <trkpt lat="45.98255" lon="6.45258">
        <ele>1535</ele>
        <time>2018-09-02T13:33:29Z</time>
      </trkpt>
      <trkpt lat="45.98257" lon="6.45264">
        <ele>1534</ele>
        <time>2018-09-02T13:33:33Z</time>
      </trkpt>
      <trkpt lat="45.9826" lon="6.4527">
        <ele>1534</ele>
        <time>2018-09-02T13:33:38Z</time>
      </trkpt>
      <trkpt lat="45.98264" lon="6.45275">
        <ele>1535</ele>
        <time>2018-09-02T13:33:43Z</time>
      </trkpt>
      <trkpt lat="45.98269" lon="6.45281">
        <ele>1535</ele>
        <time>2018-09-02T13:33:50Z</time>
      </trkpt>
      <trkpt lat="45.98271" lon="6.45291">
        <ele>1532</ele>
        <time>2018-09-02T13:33:59Z</time>
      </trkpt>
      <trkpt lat="45.98277" lon="6.45298">
        <ele>1529</ele>
        <time>2018-09-02T13:34:22Z</time>
      </trkpt>
      <trkpt lat="45.98279" lon="6.45305">
        <ele>1529</ele>
        <time>2018-09-02T13:34:27Z</time>
      </trkpt>
      <trkpt lat="45.98285" lon="6.45316">
        <ele>1528</ele>
        <time>2018-09-02T13:34:36Z</time>
      </trkpt>
      <trkpt lat="45.98292" lon="6.45318">
        <ele>1527</ele>
        <time>2018-09-02T13:34:43Z</time>
      </trkpt>
      <trkpt lat="45.98297" lon="6.4532">
        <ele>1526</ele>
        <time>2018-09-02T13:34:48Z</time>
      </trkpt>
      <trkpt lat="45.983" lon="6.45325">
        <ele>1524</ele>
        <time>2018-09-02T13:34:52Z</time>
      </trkpt>
      <trkpt lat="45.98303" lon="6.45332">
        <ele>1523</ele>
        <time>2018-09-02T13:34:57Z</time>
      </trkpt>
      <trkpt lat="45.98306" lon="6.45338">
        <ele>1524</ele>
        <time>2018-09-02T13:35:01Z</time>
      </trkpt>
      <trkpt lat="45.98307" lon="6.45346">
        <ele>1523</ele>
        <time>2018-09-02T13:35:06Z</time>
      </trkpt>
      <trkpt lat="45.98308" lon="6.45354">
        <ele>1523</ele>
        <time>2018-09-02T13:35:11Z</time>
      </trkpt>
      <trkpt lat="45.98308" lon="6.45361">
        <ele>1521</ele>
        <time>2018-09-02T13:35:15Z</time>
      </trkpt>
      <trkpt lat="45.98307" lon="6.45367">
        <ele>1521</ele>
        <time>2018-09-02T13:35:19Z</time>
      </trkpt>
      <trkpt lat="45.98308" lon="6.45374">
        <ele>1521</ele>
        <time>2018-09-02T13:35:23Z</time>
      </trkpt>
      <trkpt lat="45.98312" lon="6.45386">
        <ele>1521</ele>
        <time>2018-09-02T13:35:31Z</time>
      </trkpt>
      <trkpt lat="45.98316" lon="6.45399">
        <ele>1519</ele>
        <time>2018-09-02T13:35:39Z</time>
      </trkpt>
      <trkpt lat="45.98317" lon="6.45405">
        <ele>1519</ele>
        <time>2018-09-02T13:35:43Z</time>
      </trkpt>
      <trkpt lat="45.9832" lon="6.45411">
        <ele>1519</ele>
        <time>2018-09-02T13:35:47Z</time>
      </trkpt>
      <trkpt lat="45.98322" lon="6.45417">
        <ele>1519</ele>
        <time>2018-09-02T13:35:51Z</time>
      </trkpt>
      <trkpt lat="45.98324" lon="6.45426">
        <ele>1523</ele>
        <time>2018-09-02T13:35:58Z</time>
      </trkpt>
      <trkpt lat="45.98327" lon="6.45433">
        <ele>1521</ele>
        <time>2018-09-02T13:36:03Z</time>
      </trkpt>
      <trkpt lat="45.98328" lon="6.45442">
        <ele>1521</ele>
        <time>2018-09-02T13:36:09Z</time>
      </trkpt>
      <trkpt lat="45.9833" lon="6.45448">
        <ele>1520</ele>
        <time>2018-09-02T13:36:14Z</time>
      </trkpt>
      <trkpt lat="45.9833" lon="6.45457">
        <ele>1519</ele>
        <time>2018-09-02T13:36:21Z</time>
      </trkpt>
      <trkpt lat="45.98334" lon="6.45472">
        <ele>1520</ele>
        <time>2018-09-02T13:36:33Z</time>
      </trkpt>
      <trkpt lat="45.98338" lon="6.45476">
        <ele>1518</ele>
        <time>2018-09-02T13:36:43Z</time>
      </trkpt>
      <trkpt lat="45.98342" lon="6.45481">
        <ele>1519</ele>
        <time>2018-09-02T13:36:48Z</time>
      </trkpt>
      <trkpt lat="45.98346" lon="6.45487">
        <ele>1514</ele>
        <time>2018-09-02T13:37:47Z</time>
      </trkpt>
      <trkpt lat="45.98349" lon="6.45492">
        <ele>1519</ele>
        <time>2018-09-02T13:37:52Z</time>
      </trkpt>
      <trkpt lat="45.98358" lon="6.45497">
        <ele>1516</ele>
        <time>2018-09-02T13:38:17Z</time>
      </trkpt>
      <trkpt lat="45.98362" lon="6.455">
        <ele>1519</ele>
        <time>2018-09-02T13:38:21Z</time>
      </trkpt>
      <trkpt lat="45.98373" lon="6.45515">
        <ele>1521</ele>
        <time>2018-09-02T13:38:34Z</time>
      </trkpt>
      <trkpt lat="45.98376" lon="6.4552">
        <ele>1520</ele>
        <time>2018-09-02T13:38:38Z</time>
      </trkpt>
      <trkpt lat="45.98379" lon="6.45526">
        <ele>1520</ele>
        <time>2018-09-02T13:38:43Z</time>
      </trkpt>
      <trkpt lat="45.98382" lon="6.45532">
        <ele>1521</ele>
        <time>2018-09-02T13:38:48Z</time>
      </trkpt>
      <trkpt lat="45.98389" lon="6.4555">
        <ele>1518</ele>
        <time>2018-09-02T13:39:09Z</time>
      </trkpt>
      <trkpt lat="45.98394" lon="6.45563">
        <ele>1519</ele>
        <time>2018-09-02T13:39:17Z</time>
      </trkpt>
      <trkpt lat="45.98395" lon="6.4557">
        <ele>1518</ele>
        <time>2018-09-02T13:39:22Z</time>
      </trkpt>
      <trkpt lat="45.98395" lon="6.45577">
        <ele>1518</ele>
        <time>2018-09-02T13:39:27Z</time>
      </trkpt>
      <trkpt lat="45.98391" lon="6.45584">
        <ele>1518</ele>
        <time>2018-09-02T13:39:35Z</time>
      </trkpt>
      <trkpt lat="45.98398" lon="6.456">
        <ele>1514</ele>
        <time>2018-09-02T13:39:51Z</time>
      </trkpt>
      <trkpt lat="45.984" lon="6.45606">
        <ele>1513</ele>
        <time>2018-09-02T13:39:56Z</time>
      </trkpt>
      <trkpt lat="45.98402" lon="6.45612">
        <ele>1514</ele>
        <time>2018-09-02T13:40:06Z</time>
      </trkpt>
      <trkpt lat="45.98405" lon="6.4562">
        <ele>1510</ele>
        <time>2018-09-02T13:40:28Z</time>
      </trkpt>
      <trkpt lat="45.98409" lon="6.45625">
        <ele>1509</ele>
        <time>2018-09-02T13:40:41Z</time>
      </trkpt>
      <trkpt lat="45.98411" lon="6.45631">
        <ele>1509</ele>
        <time>2018-09-02T13:40:45Z</time>
      </trkpt>
      <trkpt lat="45.98414" lon="6.45636">
        <ele>1512</ele>
        <time>2018-09-02T13:40:54Z</time>
      </trkpt>
      <trkpt lat="45.98416" lon="6.45624">
        <ele>1513</ele>
        <time>2018-09-02T13:41:24Z</time>
      </trkpt>
      <trkpt lat="45.98419" lon="6.45618">
        <ele>1514</ele>
        <time>2018-09-02T13:41:30Z</time>
      </trkpt>
      <trkpt lat="45.98425" lon="6.45626">
        <ele>1516</ele>
        <time>2018-09-02T13:41:43Z</time>
      </trkpt>
      <trkpt lat="45.98435" lon="6.45625">
        <ele>1519</ele>
        <time>2018-09-02T13:41:55Z</time>
      </trkpt>
      <trkpt lat="45.98439" lon="6.45625">
        <ele>1520</ele>
        <time>2018-09-02T13:42:01Z</time>
      </trkpt>
      <trkpt lat="45.98446" lon="6.45625">
        <ele>1518</ele>
        <time>2018-09-02T13:42:19Z</time>
      </trkpt>
      <trkpt lat="45.98451" lon="6.45628">
        <ele>1523</ele>
        <time>2018-09-02T13:42:25Z</time>
      </trkpt>
      <trkpt lat="45.98456" lon="6.45626">
        <ele>1523</ele>
        <time>2018-09-02T13:42:33Z</time>
      </trkpt>
      <trkpt lat="45.98463" lon="6.45624">
        <ele>1524</ele>
        <time>2018-09-02T13:42:45Z</time>
      </trkpt>
      <trkpt lat="45.98467" lon="6.45628">
        <ele>1527</ele>
        <time>2018-09-02T13:42:51Z</time>
      </trkpt>
      <trkpt lat="45.98473" lon="6.45635">
        <ele>1524</ele>
        <time>2018-09-02T13:43:00Z</time>
      </trkpt>
      <trkpt lat="45.98476" lon="6.4564">
        <ele>1528</ele>
        <time>2018-09-02T13:43:12Z</time>
      </trkpt>
      <trkpt lat="45.98481" lon="6.45648">
        <ele>1522</ele>
        <time>2018-09-02T13:43:24Z</time>
      </trkpt>
      <trkpt lat="45.98487" lon="6.45658">
        <ele>1527</ele>
        <time>2018-09-02T13:43:35Z</time>
      </trkpt>
      <trkpt lat="45.98489" lon="6.45666">
        <ele>1528</ele>
        <time>2018-09-02T13:43:42Z</time>
      </trkpt>
      <trkpt lat="45.98491" lon="6.45675">
        <ele>1527</ele>
        <time>2018-09-02T13:43:50Z</time>
      </trkpt>
      <trkpt lat="45.98498" lon="6.45682">
        <ele>1529</ele>
        <time>2018-09-02T13:44:02Z</time>
      </trkpt>
      <trkpt lat="45.98507" lon="6.45682">
        <ele>1532</ele>
        <time>2018-09-02T13:44:14Z</time>
      </trkpt>
      <trkpt lat="45.98513" lon="6.45688">
        <ele>1534</ele>
        <time>2018-09-02T13:44:23Z</time>
      </trkpt>
      <trkpt lat="45.98518" lon="6.45688">
        <ele>1534</ele>
        <time>2018-09-02T13:44:31Z</time>
      </trkpt>
      <trkpt lat="45.98526" lon="6.45691">
        <ele>1537</ele>
        <time>2018-09-02T13:44:42Z</time>
      </trkpt>
      <trkpt lat="45.98541" lon="6.45702">
        <ele>1538</ele>
        <time>2018-09-02T13:45:01Z</time>
      </trkpt>
      <trkpt lat="45.98546" lon="6.45709">
        <ele>1540</ele>
        <time>2018-09-02T13:45:10Z</time>
      </trkpt>
      <trkpt lat="45.98551" lon="6.45712">
        <ele>1541</ele>
        <time>2018-09-02T13:45:16Z</time>
      </trkpt>
      <trkpt lat="45.98554" lon="6.45716">
        <ele>1543</ele>
        <time>2018-09-02T13:45:21Z</time>
      </trkpt>
      <trkpt lat="45.98558" lon="6.45722">
        <ele>1544</ele>
        <time>2018-09-02T13:45:26Z</time>
      </trkpt>
      <trkpt lat="45.98562" lon="6.45728">
        <ele>1539</ele>
        <time>2018-09-02T13:45:34Z</time>
      </trkpt>
      <trkpt lat="45.98568" lon="6.45734">
        <ele>1544</ele>
        <time>2018-09-02T13:45:49Z</time>
      </trkpt>
      <trkpt lat="45.98572" lon="6.45738">
        <ele>1542</ele>
        <time>2018-09-02T13:45:53Z</time>
      </trkpt>
      <trkpt lat="45.98577" lon="6.45745">
        <ele>1543</ele>
        <time>2018-09-02T13:46:01Z</time>
      </trkpt>
      <trkpt lat="45.98579" lon="6.45751">
        <ele>1551</ele>
        <time>2018-09-02T13:46:11Z</time>
      </trkpt>
      <trkpt lat="45.98579" lon="6.45758">
        <ele>1543</ele>
        <time>2018-09-02T13:46:52Z</time>
      </trkpt>
      <trkpt lat="45.98588" lon="6.45769">
        <ele>1550</ele>
        <time>2018-09-02T13:47:11Z</time>
      </trkpt>
      <trkpt lat="45.98593" lon="6.45772">
        <ele>1548</ele>
        <time>2018-09-02T13:47:16Z</time>
      </trkpt>
      <trkpt lat="45.98593" lon="6.4578">
        <ele>1552</ele>
        <time>2018-09-02T13:47:29Z</time>
      </trkpt>
      <trkpt lat="45.98594" lon="6.45787">
        <ele>1550</ele>
        <time>2018-09-02T13:47:41Z</time>
      </trkpt>
      <trkpt lat="45.98588" lon="6.45795">
        <ele>1548</ele>
        <time>2018-09-02T13:47:53Z</time>
      </trkpt>
      <trkpt lat="45.98591" lon="6.45805">
        <ele>1546</ele>
        <time>2018-09-02T13:48:05Z</time>
      </trkpt>
      <trkpt lat="45.98588" lon="6.45811">
        <ele>1542</ele>
        <time>2018-09-02T13:48:17Z</time>
      </trkpt>
      <trkpt lat="45.9859" lon="6.45822">
        <ele>1541</ele>
        <time>2018-09-02T13:48:29Z</time>
      </trkpt>
      <trkpt lat="45.98595" lon="6.45833">
        <ele>1540</ele>
        <time>2018-09-02T13:48:41Z</time>
      </trkpt>
      <trkpt lat="45.98598" lon="6.45845">
        <ele>1529</ele>
        <time>2018-09-02T13:50:41Z</time>
      </trkpt>
      <trkpt lat="45.98597" lon="6.45855">
        <ele>1539</ele>
        <time>2018-09-02T13:50:50Z</time>
      </trkpt>
      <trkpt lat="45.98602" lon="6.45869">
        <ele>1535</ele>
        <time>2018-09-02T13:51:10Z</time>
      </trkpt>
      <trkpt lat="45.98604" lon="6.45879">
        <ele>1539</ele>
        <time>2018-09-02T13:51:22Z</time>
      </trkpt>
      <trkpt lat="45.98605" lon="6.45889">
        <ele>1539</ele>
        <time>2018-09-02T13:51:33Z</time>
      </trkpt>
      <trkpt lat="45.98606" lon="6.45895">
        <ele>1536</ele>
        <time>2018-09-02T13:51:38Z</time>
      </trkpt>
      <trkpt lat="45.98613" lon="6.45909">
        <ele>1541</ele>
        <time>2018-09-02T13:51:51Z</time>
      </trkpt>
      <trkpt lat="45.98616" lon="6.45916">
        <ele>1540</ele>
        <time>2018-09-02T13:51:59Z</time>
      </trkpt>
      <trkpt lat="45.98621" lon="6.45922">
        <ele>1536</ele>
        <time>2018-09-02T13:52:11Z</time>
      </trkpt>
      <trkpt lat="45.98626" lon="6.45927">
        <ele>1541</ele>
        <time>2018-09-02T13:52:16Z</time>
      </trkpt>
      <trkpt lat="45.98632" lon="6.45936">
        <ele>1534</ele>
        <time>2018-09-02T13:53:36Z</time>
      </trkpt>
      <trkpt lat="45.98633" lon="6.45943">
        <ele>1538</ele>
        <time>2018-09-02T13:53:42Z</time>
      </trkpt>
      <trkpt lat="45.98639" lon="6.45951">
        <ele>1540</ele>
        <time>2018-09-02T13:53:51Z</time>
      </trkpt>
      <trkpt lat="45.98642" lon="6.45957">
        <ele>1539</ele>
        <time>2018-09-02T13:53:58Z</time>
      </trkpt>
      <trkpt lat="45.9864" lon="6.45965">
        <ele>1536</ele>
        <time>2018-09-02T13:54:08Z</time>
      </trkpt>
      <trkpt lat="45.98639" lon="6.45973">
        <ele>1534</ele>
        <time>2018-09-02T13:54:18Z</time>
      </trkpt>
      <trkpt lat="45.98641" lon="6.45986">
        <ele>1532</ele>
        <time>2018-09-02T13:54:28Z</time>
      </trkpt>
      <trkpt lat="45.98645" lon="6.45993">
        <ele>1525</ele>
        <time>2018-09-02T13:54:44Z</time>
      </trkpt>
      <trkpt lat="45.98645" lon="6.46">
        <ele>1529</ele>
        <time>2018-09-02T13:55:08Z</time>
      </trkpt>
      <trkpt lat="45.98646" lon="6.46011">
        <ele>1525</ele>
        <time>2018-09-02T13:55:20Z</time>
      </trkpt>
      <trkpt lat="45.98646" lon="6.46023">
        <ele>1526</ele>
        <time>2018-09-02T13:55:37Z</time>
      </trkpt>
      <trkpt lat="45.9865" lon="6.4605">
        <ele>1518</ele>
        <time>2018-09-02T13:56:38Z</time>
      </trkpt>
      <trkpt lat="45.98652" lon="6.46056">
        <ele>1518</ele>
        <time>2018-09-02T13:56:43Z</time>
      </trkpt>
      <trkpt lat="45.98657" lon="6.46064">
        <ele>1518</ele>
        <time>2018-09-02T13:56:51Z</time>
      </trkpt>
      <trkpt lat="45.9866" lon="6.46068">
        <ele>1520</ele>
        <time>2018-09-02T13:56:56Z</time>
      </trkpt>
      <trkpt lat="45.98665" lon="6.46078">
        <ele>1520</ele>
        <time>2018-09-02T13:57:06Z</time>
      </trkpt>
      <trkpt lat="45.98667" lon="6.46085">
        <ele>1518</ele>
        <time>2018-09-02T13:57:12Z</time>
      </trkpt>
      <trkpt lat="45.98671" lon="6.46092">
        <ele>1522</ele>
        <time>2018-09-02T13:57:20Z</time>
      </trkpt>
      <trkpt lat="45.98673" lon="6.46098">
        <ele>1521</ele>
        <time>2018-09-02T13:57:26Z</time>
      </trkpt>
      <trkpt lat="45.98675" lon="6.46105">
        <ele>1520</ele>
        <time>2018-09-02T13:57:32Z</time>
      </trkpt>
      <trkpt lat="45.98682" lon="6.46119">
        <ele>1517</ele>
        <time>2018-09-02T13:57:44Z</time>
      </trkpt>
      <trkpt lat="45.98685" lon="6.46128">
        <ele>1518</ele>
        <time>2018-09-02T13:57:53Z</time>
      </trkpt>
      <trkpt lat="45.98689" lon="6.46134">
        <ele>1518</ele>
        <time>2018-09-02T13:57:59Z</time>
      </trkpt>
      <trkpt lat="45.98693" lon="6.46144">
        <ele>1520</ele>
        <time>2018-09-02T13:58:11Z</time>
      </trkpt>
      <trkpt lat="45.98696" lon="6.46152">
        <ele>1515</ele>
        <time>2018-09-02T13:58:23Z</time>
      </trkpt>
      <trkpt lat="45.98701" lon="6.46158">
        <ele>1522</ele>
        <time>2018-09-02T13:58:41Z</time>
      </trkpt>
      <trkpt lat="45.98703" lon="6.46165">
        <ele>1517</ele>
        <time>2018-09-02T13:59:05Z</time>
      </trkpt>
      <trkpt lat="45.98707" lon="6.46171">
        <ele>1521</ele>
        <time>2018-09-02T13:59:11Z</time>
      </trkpt>
      <trkpt lat="45.98713" lon="6.46175">
        <ele>1520</ele>
        <time>2018-09-02T13:59:18Z</time>
      </trkpt>
      <trkpt lat="45.98715" lon="6.4618">
        <ele>1518</ele>
        <time>2018-09-02T13:59:22Z</time>
      </trkpt>
      <trkpt lat="45.98716" lon="6.46187">
        <ele>1516</ele>
        <time>2018-09-02T13:59:27Z</time>
      </trkpt>
      <trkpt lat="45.98719" lon="6.46197">
        <ele>1521</ele>
        <time>2018-09-02T13:59:36Z</time>
      </trkpt>
      <trkpt lat="45.98727" lon="6.46215">
        <ele>1516</ele>
        <time>2018-09-02T14:00:01Z</time>
      </trkpt>
      <trkpt lat="45.98728" lon="6.46223">
        <ele>1518</ele>
        <time>2018-09-02T14:00:21Z</time>
      </trkpt>
      <trkpt lat="45.98731" lon="6.46229">
        <ele>1513</ele>
        <time>2018-09-02T14:00:39Z</time>
      </trkpt>
      <trkpt lat="45.98734" lon="6.46234">
        <ele>1517</ele>
        <time>2018-09-02T14:00:44Z</time>
      </trkpt>
      <trkpt lat="45.98738" lon="6.46242">
        <ele>1518</ele>
        <time>2018-09-02T14:00:52Z</time>
      </trkpt>
      <trkpt lat="45.9874" lon="6.4625">
        <ele>1517</ele>
        <time>2018-09-02T14:01:03Z</time>
      </trkpt>
      <trkpt lat="45.98745" lon="6.46268">
        <ele>1522</ele>
        <time>2018-09-02T14:01:24Z</time>
      </trkpt>
      <trkpt lat="45.98748" lon="6.46274">
        <ele>1521</ele>
        <time>2018-09-02T14:01:34Z</time>
      </trkpt>
      <trkpt lat="45.98752" lon="6.46286">
        <ele>1519</ele>
        <time>2018-09-02T14:01:44Z</time>
      </trkpt>
      <trkpt lat="45.98755" lon="6.46293">
        <ele>1520</ele>
        <time>2018-09-02T14:01:51Z</time>
      </trkpt>
      <trkpt lat="45.98757" lon="6.46302">
        <ele>1523</ele>
        <time>2018-09-02T14:02:00Z</time>
      </trkpt>
      <trkpt lat="45.98758" lon="6.46308">
        <ele>1522</ele>
        <time>2018-09-02T14:02:05Z</time>
      </trkpt>
      <trkpt lat="45.98762" lon="6.46318">
        <ele>1523</ele>
        <time>2018-09-02T14:02:13Z</time>
      </trkpt>
      <trkpt lat="45.98765" lon="6.46326">
        <ele>1520</ele>
        <time>2018-09-02T14:02:22Z</time>
      </trkpt>
      <trkpt lat="45.98774" lon="6.46354">
        <ele>1523</ele>
        <time>2018-09-02T14:02:46Z</time>
      </trkpt>
      <trkpt lat="45.98778" lon="6.46362">
        <ele>1521</ele>
        <time>2018-09-02T14:02:54Z</time>
      </trkpt>
      <trkpt lat="45.9878" lon="6.46372">
        <ele>1520</ele>
        <time>2018-09-02T14:03:06Z</time>
      </trkpt>
      <trkpt lat="45.98785" lon="6.46384">
        <ele>1524</ele>
        <time>2018-09-02T14:03:18Z</time>
      </trkpt>
      <trkpt lat="45.98789" lon="6.46395">
        <ele>1524</ele>
        <time>2018-09-02T14:03:28Z</time>
      </trkpt>
      <trkpt lat="45.98792" lon="6.46406">
        <ele>1524</ele>
        <time>2018-09-02T14:03:40Z</time>
      </trkpt>
      <trkpt lat="45.98795" lon="6.46419">
        <ele>1521</ele>
        <time>2018-09-02T14:03:52Z</time>
      </trkpt>
      <trkpt lat="45.98796" lon="6.46425">
        <ele>1521</ele>
        <time>2018-09-02T14:03:58Z</time>
      </trkpt>
      <trkpt lat="45.98796" lon="6.46438">
        <ele>1523</ele>
        <time>2018-09-02T14:04:16Z</time>
      </trkpt>
      <trkpt lat="45.98797" lon="6.46445">
        <ele>1520</ele>
        <time>2018-09-02T14:04:22Z</time>
      </trkpt>
      <trkpt lat="45.98798" lon="6.46451">
        <ele>1520</ele>
        <time>2018-09-02T14:04:27Z</time>
      </trkpt>
      <trkpt lat="45.98801" lon="6.46462">
        <ele>1519</ele>
        <time>2018-09-02T14:04:37Z</time>
      </trkpt>
      <trkpt lat="45.98804" lon="6.46474">
        <ele>1523</ele>
        <time>2018-09-02T14:04:48Z</time>
      </trkpt>
      <trkpt lat="45.98803" lon="6.46482">
        <ele>1519</ele>
        <time>2018-09-02T14:04:56Z</time>
      </trkpt>
      <trkpt lat="45.98807" lon="6.46488">
        <ele>1519</ele>
        <time>2018-09-02T14:05:01Z</time>
      </trkpt>
      <trkpt lat="45.98811" lon="6.46495">
        <ele>1519</ele>
        <time>2018-09-02T14:05:09Z</time>
      </trkpt>
      <trkpt lat="45.98815" lon="6.46501">
        <ele>1519</ele>
        <time>2018-09-02T14:05:15Z</time>
      </trkpt>
      <trkpt lat="45.98819" lon="6.46504">
        <ele>1520</ele>
        <time>2018-09-02T14:05:20Z</time>
      </trkpt>
      <trkpt lat="45.98824" lon="6.4651">
        <ele>1520</ele>
        <time>2018-09-02T14:05:28Z</time>
      </trkpt>
      <trkpt lat="45.98827" lon="6.46516">
        <ele>1521</ele>
        <time>2018-09-02T14:05:34Z</time>
      </trkpt>
      <trkpt lat="45.98831" lon="6.4652">
        <ele>1520</ele>
        <time>2018-09-02T14:05:39Z</time>
      </trkpt>
      <trkpt lat="45.98835" lon="6.46526">
        <ele>1521</ele>
        <time>2018-09-02T14:05:47Z</time>
      </trkpt>
      <trkpt lat="45.98839" lon="6.4653">
        <ele>1523</ele>
        <time>2018-09-02T14:05:53Z</time>
      </trkpt>
      <trkpt lat="45.98843" lon="6.46535">
        <ele>1523</ele>
        <time>2018-09-02T14:05:59Z</time>
      </trkpt>
      <trkpt lat="45.98846" lon="6.4654">
        <ele>1523</ele>
        <time>2018-09-02T14:06:05Z</time>
      </trkpt>
      <trkpt lat="45.98848" lon="6.46547">
        <ele>1522</ele>
        <time>2018-09-02T14:06:11Z</time>
      </trkpt>
      <trkpt lat="45.98851" lon="6.46554">
        <ele>1524</ele>
        <time>2018-09-02T14:06:19Z</time>
      </trkpt>
      <trkpt lat="45.98855" lon="6.46559">
        <ele>1523</ele>
        <time>2018-09-02T14:06:25Z</time>
      </trkpt>
      <trkpt lat="45.98858" lon="6.46566">
        <ele>1525</ele>
        <time>2018-09-02T14:06:33Z</time>
      </trkpt>
      <trkpt lat="45.98862" lon="6.46569">
        <ele>1523</ele>
        <time>2018-09-02T14:06:39Z</time>
      </trkpt>
      <trkpt lat="45.98865" lon="6.46576">
        <ele>1525</ele>
        <time>2018-09-02T14:06:45Z</time>
      </trkpt>
      <trkpt lat="45.98868" lon="6.46581">
        <ele>1523</ele>
        <time>2018-09-02T14:06:51Z</time>
      </trkpt>
      <trkpt lat="45.98871" lon="6.4659">
        <ele>1526</ele>
        <time>2018-09-02T14:07:03Z</time>
      </trkpt>
      <trkpt lat="45.98873" lon="6.46599">
        <ele>1528</ele>
        <time>2018-09-02T14:07:15Z</time>
      </trkpt>
      <trkpt lat="45.98874" lon="6.46606">
        <ele>1525</ele>
        <time>2018-09-02T14:07:21Z</time>
      </trkpt>
      <trkpt lat="45.98876" lon="6.46613">
        <ele>1525</ele>
        <time>2018-09-02T14:07:27Z</time>
      </trkpt>
      <trkpt lat="45.98877" lon="6.4662">
        <ele>1523</ele>
        <time>2018-09-02T14:07:32Z</time>
      </trkpt>
      <trkpt lat="45.98877" lon="6.46629">
        <ele>1524</ele>
        <time>2018-09-02T14:07:39Z</time>
      </trkpt>
      <trkpt lat="45.98877" lon="6.46636">
        <ele>1526</ele>
        <time>2018-09-02T14:07:44Z</time>
      </trkpt>
      <trkpt lat="45.98879" lon="6.46642">
        <ele>1525</ele>
        <time>2018-09-02T14:07:49Z</time>
      </trkpt>
      <trkpt lat="45.9888" lon="6.46651">
        <ele>1525</ele>
        <time>2018-09-02T14:07:56Z</time>
      </trkpt>
      <trkpt lat="45.98882" lon="6.46661">
        <ele>1523</ele>
        <time>2018-09-02T14:08:05Z</time>
      </trkpt>
      <trkpt lat="45.98885" lon="6.46671">
        <ele>1524</ele>
        <time>2018-09-02T14:08:13Z</time>
      </trkpt>
      <trkpt lat="45.98886" lon="6.46677">
        <ele>1523</ele>
        <time>2018-09-02T14:08:18Z</time>
      </trkpt>
      <trkpt lat="45.98888" lon="6.46694">
        <ele>1524</ele>
        <time>2018-09-02T14:08:30Z</time>
      </trkpt>
      <trkpt lat="45.98888" lon="6.46702">
        <ele>1525</ele>
        <time>2018-09-02T14:08:35Z</time>
      </trkpt>
      <trkpt lat="45.98889" lon="6.46709">
        <ele>1524</ele>
        <time>2018-09-02T14:08:40Z</time>
      </trkpt>
      <trkpt lat="45.9889" lon="6.46716">
        <ele>1525</ele>
        <time>2018-09-02T14:08:45Z</time>
      </trkpt>
      <trkpt lat="45.98891" lon="6.46726">
        <ele>1524</ele>
        <time>2018-09-02T14:08:52Z</time>
      </trkpt>
      <trkpt lat="45.98892" lon="6.46733">
        <ele>1525</ele>
        <time>2018-09-02T14:08:57Z</time>
      </trkpt>
      <trkpt lat="45.98894" lon="6.46739">
        <ele>1523</ele>
        <time>2018-09-02T14:09:02Z</time>
      </trkpt>
      <trkpt lat="45.98897" lon="6.46746">
        <ele>1524</ele>
        <time>2018-09-02T14:09:07Z</time>
      </trkpt>
      <trkpt lat="45.98898" lon="6.46753">
        <ele>1524</ele>
        <time>2018-09-02T14:09:12Z</time>
      </trkpt>
      <trkpt lat="45.98899" lon="6.4676">
        <ele>1525</ele>
        <time>2018-09-02T14:09:16Z</time>
      </trkpt>
      <trkpt lat="45.98907" lon="6.46793">
        <ele>1525</ele>
        <time>2018-09-02T14:09:39Z</time>
      </trkpt>
      <trkpt lat="45.98908" lon="6.468">
        <ele>1525</ele>
        <time>2018-09-02T14:09:44Z</time>
      </trkpt>
      <trkpt lat="45.98911" lon="6.46805">
        <ele>1525</ele>
        <time>2018-09-02T14:09:49Z</time>
      </trkpt>
      <trkpt lat="45.98915" lon="6.4681">
        <ele>1526</ele>
        <time>2018-09-02T14:09:54Z</time>
      </trkpt>
      <trkpt lat="45.9892" lon="6.46813">
        <ele>1525</ele>
        <time>2018-09-02T14:09:59Z</time>
      </trkpt>
      <trkpt lat="45.98923" lon="6.46818">
        <ele>1524</ele>
        <time>2018-09-02T14:10:04Z</time>
      </trkpt>
      <trkpt lat="45.98929" lon="6.46825">
        <ele>1526</ele>
        <time>2018-09-02T14:10:12Z</time>
      </trkpt>
      <trkpt lat="45.98931" lon="6.46831">
        <ele>1525</ele>
        <time>2018-09-02T14:10:17Z</time>
      </trkpt>
      <trkpt lat="45.98932" lon="6.4684">
        <ele>1525</ele>
        <time>2018-09-02T14:10:24Z</time>
      </trkpt>
      <trkpt lat="45.98935" lon="6.46857">
        <ele>1528</ele>
        <time>2018-09-02T14:10:37Z</time>
      </trkpt>
      <trkpt lat="45.98939" lon="6.46873">
        <ele>1528</ele>
        <time>2018-09-02T14:10:50Z</time>
      </trkpt>
      <trkpt lat="45.9894" lon="6.46879">
        <ele>1529</ele>
        <time>2018-09-02T14:10:55Z</time>
      </trkpt>
      <trkpt lat="45.98941" lon="6.46886">
        <ele>1529</ele>
        <time>2018-09-02T14:11:00Z</time>
      </trkpt>
      <trkpt lat="45.98945" lon="6.469">
        <ele>1530</ele>
        <time>2018-09-02T14:11:10Z</time>
      </trkpt>
      <trkpt lat="45.98949" lon="6.46905">
        <ele>1530</ele>
        <time>2018-09-02T14:11:15Z</time>
      </trkpt>
      <trkpt lat="45.98951" lon="6.46912">
        <ele>1530</ele>
        <time>2018-09-02T14:11:20Z</time>
      </trkpt>
      <trkpt lat="45.98952" lon="6.46928">
        <ele>1531</ele>
        <time>2018-09-02T14:11:30Z</time>
      </trkpt>
      <trkpt lat="45.98958" lon="6.46927">
        <ele>1530</ele>
        <time>2018-09-02T14:11:37Z</time>
      </trkpt>
      <trkpt lat="45.98965" lon="6.46932">
        <ele>1534</ele>
        <time>2018-09-02T14:11:47Z</time>
      </trkpt>
      <trkpt lat="45.98968" lon="6.46944">
        <ele>1533</ele>
        <time>2018-09-02T14:11:59Z</time>
      </trkpt>
      <trkpt lat="45.98968" lon="6.46952">
        <ele>1538</ele>
        <time>2018-09-02T14:12:05Z</time>
      </trkpt>
      <trkpt lat="45.98965" lon="6.4696">
        <ele>1535</ele>
        <time>2018-09-02T14:12:13Z</time>
      </trkpt>
      <trkpt lat="45.98965" lon="6.46967">
        <ele>1537</ele>
        <time>2018-09-02T14:12:19Z</time>
      </trkpt>
      <trkpt lat="45.98969" lon="6.46978">
        <ele>1539</ele>
        <time>2018-09-02T14:12:31Z</time>
      </trkpt>
      <trkpt lat="45.9897" lon="6.46985">
        <ele>1541</ele>
        <time>2018-09-02T14:12:37Z</time>
      </trkpt>
      <trkpt lat="45.98971" lon="6.46991">
        <ele>1541</ele>
        <time>2018-09-02T14:12:43Z</time>
      </trkpt>
      <trkpt lat="45.9898" lon="6.47009">
        <ele>1545</ele>
        <time>2018-09-02T14:13:03Z</time>
      </trkpt>
      <trkpt lat="45.98984" lon="6.47013">
        <ele>1545</ele>
        <time>2018-09-02T14:13:09Z</time>
      </trkpt>
      <trkpt lat="45.98988" lon="6.47025">
        <ele>1548</ele>
        <time>2018-09-02T14:13:21Z</time>
      </trkpt>
      <trkpt lat="45.98991" lon="6.47029">
        <ele>1548</ele>
        <time>2018-09-02T14:13:27Z</time>
      </trkpt>
      <trkpt lat="45.98998" lon="6.47033">
        <ele>1551</ele>
        <time>2018-09-02T14:13:39Z</time>
      </trkpt>
      <trkpt lat="45.99003" lon="6.47031">
        <ele>1553</ele>
        <time>2018-09-02T14:13:45Z</time>
      </trkpt>
      <trkpt lat="45.99006" lon="6.47025">
        <ele>1554</ele>
        <time>2018-09-02T14:13:50Z</time>
      </trkpt>
      <trkpt lat="45.99008" lon="6.4702">
        <ele>1553</ele>
        <time>2018-09-02T14:13:55Z</time>
      </trkpt>
      <trkpt lat="45.9902" lon="6.4704">
        <ele>1556</ele>
        <time>2018-09-02T14:14:17Z</time>
      </trkpt>
      <trkpt lat="45.99024" lon="6.4705">
        <ele>1551</ele>
        <time>2018-09-02T14:14:40Z</time>
      </trkpt>
      <trkpt lat="45.99028" lon="6.47059">
        <ele>1557</ele>
        <time>2018-09-02T14:14:48Z</time>
      </trkpt>
      <trkpt lat="45.9903" lon="6.47066">
        <ele>1558</ele>
        <time>2018-09-02T14:14:53Z</time>
      </trkpt>
      <trkpt lat="45.99032" lon="6.47074">
        <ele>1556</ele>
        <time>2018-09-02T14:15:01Z</time>
      </trkpt>
      <trkpt lat="45.99035" lon="6.47081">
        <ele>1558</ele>
        <time>2018-09-02T14:15:07Z</time>
      </trkpt>
      <trkpt lat="45.99037" lon="6.47087">
        <ele>1557</ele>
        <time>2018-09-02T14:15:12Z</time>
      </trkpt>
      <trkpt lat="45.99039" lon="6.47093">
        <ele>1559</ele>
        <time>2018-09-02T14:15:17Z</time>
      </trkpt>
      <trkpt lat="45.99041" lon="6.47102">
        <ele>1558</ele>
        <time>2018-09-02T14:15:24Z</time>
      </trkpt>
      <trkpt lat="45.99043" lon="6.47108">
        <ele>1559</ele>
        <time>2018-09-02T14:15:29Z</time>
      </trkpt>
      <trkpt lat="45.99047" lon="6.47115">
        <ele>1561</ele>
        <time>2018-09-02T14:15:36Z</time>
      </trkpt>
      <trkpt lat="45.9905" lon="6.47121">
        <ele>1561</ele>
        <time>2018-09-02T14:15:41Z</time>
      </trkpt>
      <trkpt lat="45.99052" lon="6.47134">
        <ele>1561</ele>
        <time>2018-09-02T14:15:51Z</time>
      </trkpt>
      <trkpt lat="45.99052" lon="6.4714">
        <ele>1561</ele>
        <time>2018-09-02T14:15:56Z</time>
      </trkpt>
      <trkpt lat="45.99053" lon="6.47149">
        <ele>1564</ele>
        <time>2018-09-02T14:16:03Z</time>
      </trkpt>
      <trkpt lat="45.99054" lon="6.47156">
        <ele>1562</ele>
        <time>2018-09-02T14:16:09Z</time>
      </trkpt>
      <trkpt lat="45.99057" lon="6.47169">
        <ele>1562</ele>
        <time>2018-09-02T14:16:21Z</time>
      </trkpt>
      <trkpt lat="45.99059" lon="6.47175">
        <ele>1563</ele>
        <time>2018-09-02T14:16:26Z</time>
      </trkpt>
      <trkpt lat="45.99061" lon="6.47182">
        <ele>1563</ele>
        <time>2018-09-02T14:16:31Z</time>
      </trkpt>
      <trkpt lat="45.99061" lon="6.47193">
        <ele>1565</ele>
        <time>2018-09-02T14:16:39Z</time>
      </trkpt>
      <trkpt lat="45.99066" lon="6.4721">
        <ele>1563</ele>
        <time>2018-09-02T14:16:52Z</time>
      </trkpt>
      <trkpt lat="45.9907" lon="6.47217">
        <ele>1562</ele>
        <time>2018-09-02T14:17:00Z</time>
      </trkpt>
      <trkpt lat="45.99082" lon="6.47228">
        <ele>1567</ele>
        <time>2018-09-02T14:17:18Z</time>
      </trkpt>
      <trkpt lat="45.99085" lon="6.47234">
        <ele>1566</ele>
        <time>2018-09-02T14:17:24Z</time>
      </trkpt>
      <trkpt lat="45.99089" lon="6.4724">
        <ele>1568</ele>
        <time>2018-09-02T14:17:32Z</time>
      </trkpt>
      <trkpt lat="45.99096" lon="6.47247">
        <ele>1567</ele>
        <time>2018-09-02T14:17:44Z</time>
      </trkpt>
      <trkpt lat="45.99099" lon="6.47259">
        <ele>1570</ele>
        <time>2018-09-02T14:17:56Z</time>
      </trkpt>
      <trkpt lat="45.99102" lon="6.47268">
        <ele>1573</ele>
        <time>2018-09-02T14:18:08Z</time>
      </trkpt>
      <trkpt lat="45.99106" lon="6.47273">
        <ele>1571</ele>
        <time>2018-09-02T14:18:14Z</time>
      </trkpt>
      <trkpt lat="45.99109" lon="6.47278">
        <ele>1572</ele>
        <time>2018-09-02T14:18:20Z</time>
      </trkpt>
      <trkpt lat="45.99111" lon="6.47285">
        <ele>1573</ele>
        <time>2018-09-02T14:18:26Z</time>
      </trkpt>
      <trkpt lat="45.99112" lon="6.47294">
        <ele>1573</ele>
        <time>2018-09-02T14:18:34Z</time>
      </trkpt>
      <trkpt lat="45.99113" lon="6.47302">
        <ele>1575</ele>
        <time>2018-09-02T14:18:40Z</time>
      </trkpt>
      <trkpt lat="45.99113" lon="6.47309">
        <ele>1576</ele>
        <time>2018-09-02T14:18:46Z</time>
      </trkpt>
      <trkpt lat="45.99113" lon="6.47316">
        <ele>1576</ele>
        <time>2018-09-02T14:18:51Z</time>
      </trkpt>
      <trkpt lat="45.99114" lon="6.47322">
        <ele>1576</ele>
        <time>2018-09-02T14:18:55Z</time>
      </trkpt>
      <trkpt lat="45.99116" lon="6.47329">
        <ele>1575</ele>
        <time>2018-09-02T14:19:00Z</time>
      </trkpt>
      <trkpt lat="45.9912" lon="6.47337">
        <ele>1574</ele>
        <time>2018-09-02T14:19:06Z</time>
      </trkpt>
      <trkpt lat="45.99137" lon="6.47363">
        <ele>1575</ele>
        <time>2018-09-02T14:19:31Z</time>
      </trkpt>
      <trkpt lat="45.99139" lon="6.47377">
        <ele>1577</ele>
        <time>2018-09-02T14:19:41Z</time>
      </trkpt>
      <trkpt lat="45.9914" lon="6.47383">
        <ele>1576</ele>
        <time>2018-09-02T14:19:46Z</time>
      </trkpt>
      <trkpt lat="45.99146" lon="6.47397">
        <ele>1579</ele>
        <time>2018-09-02T14:19:59Z</time>
      </trkpt>
      <trkpt lat="45.99148" lon="6.47404">
        <ele>1580</ele>
        <time>2018-09-02T14:20:05Z</time>
      </trkpt>
      <trkpt lat="45.9915" lon="6.4741">
        <ele>1581</ele>
        <time>2018-09-02T14:20:11Z</time>
      </trkpt>
      <trkpt lat="45.99154" lon="6.47419">
        <ele>1583</ele>
        <time>2018-09-02T14:20:23Z</time>
      </trkpt>
      <trkpt lat="45.99162" lon="6.47456">
        <ele>1588</ele>
        <time>2018-09-02T14:20:58Z</time>
      </trkpt>
      <trkpt lat="45.99164" lon="6.47463">
        <ele>1588</ele>
        <time>2018-09-02T14:21:04Z</time>
      </trkpt>
      <trkpt lat="45.99163" lon="6.47472">
        <ele>1590</ele>
        <time>2018-09-02T14:21:11Z</time>
      </trkpt>
      <trkpt lat="45.99166" lon="6.47479">
        <ele>1591</ele>
        <time>2018-09-02T14:21:19Z</time>
      </trkpt>
      <trkpt lat="45.9917" lon="6.47483">
        <ele>1593</ele>
        <time>2018-09-02T14:21:25Z</time>
      </trkpt>
      <trkpt lat="45.99171" lon="6.47489">
        <ele>1593</ele>
        <time>2018-09-02T14:21:31Z</time>
      </trkpt>
      <trkpt lat="45.99179" lon="6.47493">
        <ele>1600</ele>
        <time>2018-09-02T14:21:42Z</time>
      </trkpt>
      <trkpt lat="45.99186" lon="6.47493">
        <ele>1595</ele>
        <time>2018-09-02T14:22:04Z</time>
      </trkpt>
      <trkpt lat="45.99192" lon="6.47492">
        <ele>1598</ele>
        <time>2018-09-02T14:22:16Z</time>
      </trkpt>
      <trkpt lat="45.99196" lon="6.47496">
        <ele>1595</ele>
        <time>2018-09-02T14:22:21Z</time>
      </trkpt>
      <trkpt lat="45.99201" lon="6.47501">
        <ele>1604</ele>
        <time>2018-09-02T14:22:29Z</time>
      </trkpt>
      <trkpt lat="45.99203" lon="6.47507">
        <ele>1602</ele>
        <time>2018-09-02T14:22:35Z</time>
      </trkpt>
      <trkpt lat="45.99206" lon="6.47515">
        <ele>1601</ele>
        <time>2018-09-02T14:22:43Z</time>
      </trkpt>
      <trkpt lat="45.99211" lon="6.47524">
        <ele>1601</ele>
        <time>2018-09-02T14:22:51Z</time>
      </trkpt>
      <trkpt lat="45.99214" lon="6.47538">
        <ele>1601</ele>
        <time>2018-09-02T14:22:59Z</time>
      </trkpt>
      <trkpt lat="45.99219" lon="6.47572">
        <ele>1601</ele>
        <time>2018-09-02T14:23:20Z</time>
      </trkpt>
      <trkpt lat="45.99221" lon="6.47578">
        <ele>1601</ele>
        <time>2018-09-02T14:23:24Z</time>
      </trkpt>
      <trkpt lat="45.99227" lon="6.47594">
        <ele>1599</ele>
        <time>2018-09-02T14:23:37Z</time>
      </trkpt>
    </trkseg>
  </trk>
</gpx>